<?xml version="1.0" encoding="UTF-8" standalone="no" ?>
<gpx xmlns="http://www.topografix.com/GPX/1/1" xmlns:xsi="http://www.w3.org/2001/XMLSchema-instance" xsi:schemaLocation="http://www.topografix.com/GPX/1/1 http://www.topografix.com/GPX/1/1/gpx.xsd" version="1.1" creator="VisuGPX - https://www.visugpx.com">
  <metadata>
    <name>Lyon - Beauvallon</name>
    <desc><![CDATA[9 juil. 2017 à 18:01:13

]]></desc>
  </metadata>
  <trk>
    <name><![CDATA[st andeol - lyon]]></name>
    <extensions>
      <line xmlns="http://www.topografix.com/GPX/gpx_style/0/2">
        <color>0000FF</color>
        <width>4</width>
      </line>
    </extensions>
    <trkseg>
      <trkpt lat="45.76054" lon="4.86681">
        <ele>176</ele>
        <time>2017-07-09T17:54:43Z</time>
      </trkpt>
      <trkpt lat="45.76056" lon="4.86666">
        <ele>176</ele>
        <time>2017-07-09T17:54:39Z</time>
      </trkpt>
      <trkpt lat="45.76057" lon="4.86654">
        <ele>176</ele>
        <time>2017-07-09T17:54:33Z</time>
      </trkpt>
      <trkpt lat="45.76074" lon="4.86639">
        <ele>176</ele>
        <time>2017-07-09T17:54:28Z</time>
      </trkpt>
      <trkpt lat="45.7613" lon="4.86647">
        <ele>176</ele>
        <time>2017-07-09T17:54:15Z</time>
      </trkpt>
      <trkpt lat="45.76128" lon="4.86549">
        <ele>177</ele>
        <time>2017-07-09T17:54:02Z</time>
      </trkpt>
      <trkpt lat="45.76119" lon="4.86549">
        <ele>177</ele>
        <time>2017-07-09T17:54:00Z</time>
      </trkpt>
      <trkpt lat="45.75925" lon="4.86541">
        <ele>180</ele>
        <time>2017-07-09T17:53:29Z</time>
      </trkpt>
      <trkpt lat="45.75924" lon="4.86528">
        <ele>179</ele>
        <time>2017-07-09T17:53:27Z</time>
      </trkpt>
      <trkpt lat="45.75909" lon="4.86261">
        <ele>185</ele>
        <time>2017-07-09T17:52:56Z</time>
      </trkpt>
      <trkpt lat="45.75906" lon="4.86224">
        <ele>186</ele>
        <time>2017-07-09T17:52:52Z</time>
      </trkpt>
      <trkpt lat="45.75903" lon="4.86176">
        <ele>188</ele>
        <time>2017-07-09T17:52:46Z</time>
      </trkpt>
      <trkpt lat="45.75902" lon="4.86158">
        <ele>188</ele>
        <time>2017-07-09T17:52:42Z</time>
      </trkpt>
      <trkpt lat="45.75902" lon="4.86138">
        <ele>181</ele>
        <time>2017-07-09T17:52:06Z</time>
      </trkpt>
      <trkpt lat="45.75902" lon="4.86105">
        <ele>170</ele>
        <time>2017-07-09T17:51:55Z</time>
      </trkpt>
      <trkpt lat="45.75882" lon="4.85958">
        <ele>169</ele>
        <time>2017-07-09T17:51:40Z</time>
      </trkpt>
      <trkpt lat="45.75882" lon="4.85933">
        <ele>169</ele>
        <time>2017-07-09T17:51:36Z</time>
      </trkpt>
      <trkpt lat="45.75883" lon="4.85926">
        <ele>169</ele>
        <time>2017-07-09T17:51:35Z</time>
      </trkpt>
      <trkpt lat="45.75883" lon="4.85918">
        <ele>169</ele>
        <time>2017-07-09T17:51:34Z</time>
      </trkpt>
      <trkpt lat="45.75876" lon="4.85888">
        <ele>169</ele>
        <time>2017-07-09T17:51:29Z</time>
      </trkpt>
      <trkpt lat="45.75883" lon="4.85875">
        <ele>169</ele>
        <time>2017-07-09T17:51:24Z</time>
      </trkpt>
      <trkpt lat="45.75895" lon="4.85866">
        <ele>169</ele>
        <time>2017-07-09T17:51:20Z</time>
      </trkpt>
      <trkpt lat="45.75902" lon="4.85863">
        <ele>169</ele>
        <time>2017-07-09T17:51:18Z</time>
      </trkpt>
      <trkpt lat="45.75907" lon="4.85862">
        <ele>169</ele>
        <time>2017-07-09T17:51:17Z</time>
      </trkpt>
      <trkpt lat="45.75914" lon="4.85861">
        <ele>169</ele>
        <time>2017-07-09T17:51:15Z</time>
      </trkpt>
      <trkpt lat="45.75943" lon="4.85853">
        <ele>174</ele>
        <time>2017-07-09T17:51:09Z</time>
      </trkpt>
      <trkpt lat="45.75948" lon="4.85848">
        <ele>176</ele>
        <time>2017-07-09T17:51:08Z</time>
      </trkpt>
      <trkpt lat="45.75953" lon="4.8585">
        <ele>176</ele>
        <time>2017-07-09T17:51:07Z</time>
      </trkpt>
      <trkpt lat="45.75963" lon="4.85846">
        <ele>176</ele>
        <time>2017-07-09T17:51:05Z</time>
      </trkpt>
      <trkpt lat="45.75969" lon="4.85843">
        <ele>175</ele>
        <time>2017-07-09T17:51:04Z</time>
      </trkpt>
      <trkpt lat="45.75976" lon="4.85839">
        <ele>175</ele>
        <time>2017-07-09T17:51:02Z</time>
      </trkpt>
      <trkpt lat="45.75989" lon="4.85837">
        <ele>175</ele>
        <time>2017-07-09T17:50:58Z</time>
      </trkpt>
      <trkpt lat="45.75996" lon="4.85835">
        <ele>174</ele>
        <time>2017-07-09T17:50:53Z</time>
      </trkpt>
      <trkpt lat="45.76003" lon="4.85831">
        <ele>173</ele>
        <time>2017-07-09T17:50:49Z</time>
      </trkpt>
      <trkpt lat="45.76003" lon="4.85825">
        <ele>172</ele>
        <time>2017-07-09T17:50:47Z</time>
      </trkpt>
      <trkpt lat="45.75983" lon="4.85776">
        <ele>172</ele>
        <time>2017-07-09T17:50:39Z</time>
      </trkpt>
      <trkpt lat="45.75982" lon="4.85757">
        <ele>174</ele>
        <time>2017-07-09T17:50:36Z</time>
      </trkpt>
      <trkpt lat="45.7598" lon="4.85739">
        <ele>174</ele>
        <time>2017-07-09T17:50:34Z</time>
      </trkpt>
      <trkpt lat="45.75994" lon="4.85733">
        <ele>175</ele>
        <time>2017-07-09T17:50:33Z</time>
      </trkpt>
      <trkpt lat="45.75985" lon="4.85657">
        <ele>178</ele>
        <time>2017-07-09T17:50:23Z</time>
      </trkpt>
      <trkpt lat="45.75984" lon="4.85649">
        <ele>178</ele>
        <time>2017-07-09T17:50:22Z</time>
      </trkpt>
      <trkpt lat="45.75985" lon="4.85639">
        <ele>178</ele>
        <time>2017-07-09T17:50:20Z</time>
      </trkpt>
      <trkpt lat="45.75972" lon="4.85521">
        <ele>180</ele>
        <time>2017-07-09T17:50:04Z</time>
      </trkpt>
      <trkpt lat="45.75952" lon="4.85494">
        <ele>181</ele>
        <time>2017-07-09T17:50:02Z</time>
      </trkpt>
      <trkpt lat="45.75921" lon="4.85262">
        <ele>184</ele>
        <time>2017-07-09T17:49:35Z</time>
      </trkpt>
      <trkpt lat="45.75936" lon="4.8523">
        <ele>184</ele>
        <time>2017-07-09T17:49:33Z</time>
      </trkpt>
      <trkpt lat="45.75984" lon="4.8522">
        <ele>179</ele>
        <time>2017-07-09T17:49:24Z</time>
      </trkpt>
      <trkpt lat="45.75993" lon="4.85207">
        <ele>177</ele>
        <time>2017-07-09T17:49:17Z</time>
      </trkpt>
      <trkpt lat="45.75991" lon="4.8519">
        <ele>178</ele>
        <time>2017-07-09T17:49:14Z</time>
      </trkpt>
      <trkpt lat="45.75988" lon="4.85141">
        <ele>178</ele>
        <time>2017-07-09T17:49:07Z</time>
      </trkpt>
      <trkpt lat="45.75985" lon="4.85103">
        <ele>179</ele>
        <time>2017-07-09T17:49:02Z</time>
      </trkpt>
      <trkpt lat="45.7598" lon="4.85046">
        <ele>177</ele>
        <time>2017-07-09T17:48:52Z</time>
      </trkpt>
      <trkpt lat="45.75978" lon="4.85021">
        <ele>178</ele>
        <time>2017-07-09T17:48:48Z</time>
      </trkpt>
      <trkpt lat="45.75967" lon="4.84864">
        <ele>175</ele>
        <time>2017-07-09T17:48:29Z</time>
      </trkpt>
      <trkpt lat="45.7595" lon="4.84612">
        <ele>176</ele>
        <time>2017-07-09T17:47:59Z</time>
      </trkpt>
      <trkpt lat="45.75949" lon="4.846">
        <ele>176</ele>
        <time>2017-07-09T17:47:57Z</time>
      </trkpt>
      <trkpt lat="45.75947" lon="4.84572">
        <ele>176</ele>
        <time>2017-07-09T17:47:50Z</time>
      </trkpt>
      <trkpt lat="45.75946" lon="4.84557">
        <ele>173</ele>
        <time>2017-07-09T17:47:21Z</time>
      </trkpt>
      <trkpt lat="45.75938" lon="4.84465">
        <ele>171</ele>
        <time>2017-07-09T17:47:12Z</time>
      </trkpt>
      <trkpt lat="45.75939" lon="4.84479">
        <ele>171</ele>
        <time>2017-07-09T17:47:11Z</time>
      </trkpt>
      <trkpt lat="45.75935" lon="4.84428">
        <ele>170</ele>
        <time>2017-07-09T17:47:06Z</time>
      </trkpt>
      <trkpt lat="45.75911" lon="4.84096">
        <ele>170</ele>
        <time>2017-07-09T17:46:36Z</time>
      </trkpt>
      <trkpt lat="45.75906" lon="4.8409">
        <ele>169</ele>
        <time>2017-07-09T17:46:33Z</time>
      </trkpt>
      <trkpt lat="45.75884" lon="4.84087">
        <ele>168</ele>
        <time>2017-07-09T17:46:27Z</time>
      </trkpt>
      <trkpt lat="45.7586" lon="4.84087">
        <ele>170</ele>
        <time>2017-07-09T17:46:22Z</time>
      </trkpt>
      <trkpt lat="45.75855" lon="4.84086">
        <ele>169</ele>
        <time>2017-07-09T17:46:21Z</time>
      </trkpt>
      <trkpt lat="45.75849" lon="4.8408">
        <ele>169</ele>
        <time>2017-07-09T17:46:19Z</time>
      </trkpt>
      <trkpt lat="45.75848" lon="4.84071">
        <ele>169</ele>
        <time>2017-07-09T17:46:17Z</time>
      </trkpt>
      <trkpt lat="45.75852" lon="4.84063">
        <ele>168</ele>
        <time>2017-07-09T17:46:14Z</time>
      </trkpt>
      <trkpt lat="45.75863" lon="4.84062">
        <ele>167</ele>
        <time>2017-07-09T17:46:10Z</time>
      </trkpt>
      <trkpt lat="45.75894" lon="4.84065">
        <ele>166</ele>
        <time>2017-07-09T17:46:02Z</time>
      </trkpt>
      <trkpt lat="45.75902" lon="4.84065">
        <ele>166</ele>
        <time>2017-07-09T17:46:00Z</time>
      </trkpt>
      <trkpt lat="45.75909" lon="4.84064">
        <ele>165</ele>
        <time>2017-07-09T17:45:58Z</time>
      </trkpt>
      <trkpt lat="45.75913" lon="4.84057">
        <ele>165</ele>
        <time>2017-07-09T17:45:56Z</time>
      </trkpt>
      <trkpt lat="45.75909" lon="4.84051">
        <ele>165</ele>
        <time>2017-07-09T17:45:54Z</time>
      </trkpt>
      <trkpt lat="45.75808" lon="4.84017">
        <ele>166</ele>
        <time>2017-07-09T17:45:37Z</time>
      </trkpt>
      <trkpt lat="45.75798" lon="4.84015">
        <ele>165</ele>
        <time>2017-07-09T17:45:35Z</time>
      </trkpt>
      <trkpt lat="45.75663" lon="4.83953">
        <ele>164</ele>
        <time>2017-07-09T17:45:07Z</time>
      </trkpt>
      <trkpt lat="45.75656" lon="4.83948">
        <ele>164</ele>
        <time>2017-07-09T17:45:06Z</time>
      </trkpt>
      <trkpt lat="45.75636" lon="4.83935">
        <ele>165</ele>
        <time>2017-07-09T17:45:02Z</time>
      </trkpt>
      <trkpt lat="45.75625" lon="4.83931">
        <ele>165</ele>
        <time>2017-07-09T17:45:00Z</time>
      </trkpt>
      <trkpt lat="45.75577" lon="4.83906">
        <ele>165</ele>
        <time>2017-07-09T17:44:52Z</time>
      </trkpt>
      <trkpt lat="45.75553" lon="4.83887">
        <ele>166</ele>
        <time>2017-07-09T17:44:48Z</time>
      </trkpt>
      <trkpt lat="45.75445" lon="4.8381">
        <ele>165</ele>
        <time>2017-07-09T17:44:29Z</time>
      </trkpt>
      <trkpt lat="45.75264" lon="4.83672">
        <ele>164</ele>
        <time>2017-07-09T17:43:58Z</time>
      </trkpt>
      <trkpt lat="45.7525" lon="4.83667">
        <ele>164</ele>
        <time>2017-07-09T17:43:56Z</time>
      </trkpt>
      <trkpt lat="45.75219" lon="4.83673">
        <ele>166</ele>
        <time>2017-07-09T17:43:51Z</time>
      </trkpt>
      <trkpt lat="45.75211" lon="4.83673">
        <ele>166</ele>
        <time>2017-07-09T17:43:50Z</time>
      </trkpt>
      <trkpt lat="45.75198" lon="4.83666">
        <ele>166</ele>
        <time>2017-07-09T17:43:48Z</time>
      </trkpt>
      <trkpt lat="45.75163" lon="4.83626">
        <ele>166</ele>
        <time>2017-07-09T17:43:41Z</time>
      </trkpt>
      <trkpt lat="45.75081" lon="4.83559">
        <ele>165</ele>
        <time>2017-07-09T17:43:27Z</time>
      </trkpt>
      <trkpt lat="45.75042" lon="4.8352">
        <ele>165</ele>
        <time>2017-07-09T17:43:20Z</time>
      </trkpt>
      <trkpt lat="45.7499" lon="4.83475">
        <ele>166</ele>
        <time>2017-07-09T17:43:11Z</time>
      </trkpt>
      <trkpt lat="45.74805" lon="4.83325">
        <ele>165</ele>
        <time>2017-07-09T17:42:40Z</time>
      </trkpt>
      <trkpt lat="45.74799" lon="4.83325">
        <ele>164</ele>
        <time>2017-07-09T17:42:39Z</time>
      </trkpt>
      <trkpt lat="45.74783" lon="4.83313">
        <ele>163</ele>
        <time>2017-07-09T17:42:36Z</time>
      </trkpt>
      <trkpt lat="45.74777" lon="4.83308">
        <ele>164</ele>
        <time>2017-07-09T17:42:35Z</time>
      </trkpt>
      <trkpt lat="45.74594" lon="4.83164">
        <ele>165</ele>
        <time>2017-07-09T17:42:04Z</time>
      </trkpt>
      <trkpt lat="45.74477" lon="4.83034">
        <ele>164</ele>
        <time>2017-07-09T17:41:43Z</time>
      </trkpt>
      <trkpt lat="45.74293" lon="4.82869">
        <ele>166</ele>
        <time>2017-07-09T17:41:12Z</time>
      </trkpt>
      <trkpt lat="45.74104" lon="4.82711">
        <ele>166</ele>
        <time>2017-07-09T17:40:42Z</time>
      </trkpt>
      <trkpt lat="45.7391" lon="4.8255">
        <ele>167</ele>
        <time>2017-07-09T17:40:12Z</time>
      </trkpt>
      <trkpt lat="45.73722" lon="4.82382">
        <ele>168</ele>
        <time>2017-07-09T17:39:41Z</time>
      </trkpt>
      <trkpt lat="45.73655" lon="4.82349">
        <ele>167</ele>
        <time>2017-07-09T17:39:29Z</time>
      </trkpt>
      <trkpt lat="45.73579" lon="4.8229">
        <ele>166</ele>
        <time>2017-07-09T17:39:15Z</time>
      </trkpt>
      <trkpt lat="45.73564" lon="4.8228">
        <ele>166</ele>
        <time>2017-07-09T17:39:12Z</time>
      </trkpt>
      <trkpt lat="45.73551" lon="4.82267">
        <ele>166</ele>
        <time>2017-07-09T17:39:09Z</time>
      </trkpt>
      <trkpt lat="45.73468" lon="4.8221">
        <ele>169</ele>
        <time>2017-07-09T17:38:54Z</time>
      </trkpt>
      <trkpt lat="45.73372" lon="4.8219">
        <ele>166</ele>
        <time>2017-07-09T17:38:39Z</time>
      </trkpt>
      <trkpt lat="45.73367" lon="4.82189">
        <ele>165</ele>
        <time>2017-07-09T17:38:38Z</time>
      </trkpt>
      <trkpt lat="45.73321" lon="4.82186">
        <ele>165</ele>
        <time>2017-07-09T17:38:30Z</time>
      </trkpt>
      <trkpt lat="45.73316" lon="4.82189">
        <ele>165</ele>
        <time>2017-07-09T17:38:29Z</time>
      </trkpt>
      <trkpt lat="45.73217" lon="4.82137">
        <ele>165</ele>
        <time>2017-07-09T17:38:13Z</time>
      </trkpt>
      <trkpt lat="45.73133" lon="4.82121">
        <ele>169</ele>
        <time>2017-07-09T17:37:59Z</time>
      </trkpt>
      <trkpt lat="45.7313" lon="4.82127">
        <ele>169</ele>
        <time>2017-07-09T17:37:55Z</time>
      </trkpt>
      <trkpt lat="45.73142" lon="4.82131">
        <ele>170</ele>
        <time>2017-07-09T17:37:52Z</time>
      </trkpt>
      <trkpt lat="45.73167" lon="4.82151">
        <ele>171</ele>
        <time>2017-07-09T17:37:46Z</time>
      </trkpt>
      <trkpt lat="45.73171" lon="4.82156">
        <ele>172</ele>
        <time>2017-07-09T17:37:45Z</time>
      </trkpt>
      <trkpt lat="45.73173" lon="4.82162">
        <ele>172</ele>
        <time>2017-07-09T17:37:44Z</time>
      </trkpt>
      <trkpt lat="45.73176" lon="4.82174">
        <ele>172</ele>
        <time>2017-07-09T17:37:42Z</time>
      </trkpt>
      <trkpt lat="45.73174" lon="4.82206">
        <ele>172</ele>
        <time>2017-07-09T17:37:36Z</time>
      </trkpt>
      <trkpt lat="45.73173" lon="4.82216">
        <ele>172</ele>
        <time>2017-07-09T17:37:34Z</time>
      </trkpt>
      <trkpt lat="45.73176" lon="4.82224">
        <ele>173</ele>
        <time>2017-07-09T17:37:31Z</time>
      </trkpt>
      <trkpt lat="45.73179" lon="4.82217">
        <ele>173</ele>
        <time>2017-07-09T17:37:29Z</time>
      </trkpt>
      <trkpt lat="45.73189" lon="4.8215">
        <ele>176</ele>
        <time>2017-07-09T17:37:21Z</time>
      </trkpt>
      <trkpt lat="45.73194" lon="4.82136">
        <ele>176</ele>
        <time>2017-07-09T17:37:19Z</time>
      </trkpt>
      <trkpt lat="45.73228" lon="4.82091">
        <ele>177</ele>
        <time>2017-07-09T17:37:11Z</time>
      </trkpt>
      <trkpt lat="45.7334" lon="4.81948">
        <ele>173</ele>
        <time>2017-07-09T17:36:41Z</time>
      </trkpt>
      <trkpt lat="45.73377" lon="4.8183">
        <ele>171</ele>
        <time>2017-07-09T17:36:23Z</time>
      </trkpt>
      <trkpt lat="45.73379" lon="4.81824">
        <ele>170</ele>
        <time>2017-07-09T17:35:55Z</time>
      </trkpt>
      <trkpt lat="45.73384" lon="4.81809">
        <ele>171</ele>
        <time>2017-07-09T17:35:44Z</time>
      </trkpt>
      <trkpt lat="45.7339" lon="4.81791">
        <ele>171</ele>
        <time>2017-07-09T17:35:40Z</time>
      </trkpt>
      <trkpt lat="45.73394" lon="4.81783">
        <ele>171</ele>
        <time>2017-07-09T17:35:38Z</time>
      </trkpt>
      <trkpt lat="45.73397" lon="4.81775">
        <ele>170</ele>
        <time>2017-07-09T17:35:36Z</time>
      </trkpt>
      <trkpt lat="45.73397" lon="4.81768">
        <ele>171</ele>
        <time>2017-07-09T17:35:34Z</time>
      </trkpt>
      <trkpt lat="45.73391" lon="4.81765">
        <ele>171</ele>
        <time>2017-07-09T17:35:32Z</time>
      </trkpt>
      <trkpt lat="45.73385" lon="4.81764">
        <ele>171</ele>
        <time>2017-07-09T17:35:30Z</time>
      </trkpt>
      <trkpt lat="45.73295" lon="4.81692">
        <ele>174</ele>
        <time>2017-07-09T17:35:13Z</time>
      </trkpt>
      <trkpt lat="45.73284" lon="4.81686">
        <ele>173</ele>
        <time>2017-07-09T17:35:11Z</time>
      </trkpt>
      <trkpt lat="45.73202" lon="4.81628">
        <ele>175</ele>
        <time>2017-07-09T17:34:57Z</time>
      </trkpt>
      <trkpt lat="45.7306" lon="4.81509">
        <ele>176</ele>
        <time>2017-07-09T17:34:26Z</time>
      </trkpt>
      <trkpt lat="45.73046" lon="4.81503">
        <ele>176</ele>
        <time>2017-07-09T17:34:23Z</time>
      </trkpt>
      <trkpt lat="45.73038" lon="4.81504">
        <ele>176</ele>
        <time>2017-07-09T17:34:21Z</time>
      </trkpt>
      <trkpt lat="45.72985" lon="4.81529">
        <ele>176</ele>
        <time>2017-07-09T17:34:09Z</time>
      </trkpt>
      <trkpt lat="45.72972" lon="4.81535">
        <ele>177</ele>
        <time>2017-07-09T17:34:05Z</time>
      </trkpt>
      <trkpt lat="45.72965" lon="4.81532">
        <ele>177</ele>
        <time>2017-07-09T17:34:03Z</time>
      </trkpt>
      <trkpt lat="45.72952" lon="4.81522">
        <ele>178</ele>
        <time>2017-07-09T17:33:59Z</time>
      </trkpt>
      <trkpt lat="45.72945" lon="4.81522">
        <ele>178</ele>
        <time>2017-07-09T17:33:57Z</time>
      </trkpt>
      <trkpt lat="45.72921" lon="4.81529">
        <ele>179</ele>
        <time>2017-07-09T17:33:51Z</time>
      </trkpt>
      <trkpt lat="45.72917" lon="4.81534">
        <ele>179</ele>
        <time>2017-07-09T17:33:49Z</time>
      </trkpt>
      <trkpt lat="45.72916" lon="4.81549">
        <ele>179</ele>
        <time>2017-07-09T17:33:42Z</time>
      </trkpt>
      <trkpt lat="45.72911" lon="4.81549">
        <ele>179</ele>
        <time>2017-07-09T17:33:40Z</time>
      </trkpt>
      <trkpt lat="45.72874" lon="4.8156">
        <ele>179</ele>
        <time>2017-07-09T17:33:32Z</time>
      </trkpt>
      <trkpt lat="45.72861" lon="4.81564">
        <ele>179</ele>
        <time>2017-07-09T17:33:30Z</time>
      </trkpt>
      <trkpt lat="45.72853" lon="4.81563">
        <ele>180</ele>
        <time>2017-07-09T17:33:29Z</time>
      </trkpt>
      <trkpt lat="45.72729" lon="4.8149">
        <ele>183</ele>
        <time>2017-07-09T17:33:13Z</time>
      </trkpt>
      <trkpt lat="45.72507" lon="4.81377">
        <ele>189</ele>
        <time>2017-07-09T17:32:42Z</time>
      </trkpt>
      <trkpt lat="45.72327" lon="4.81213">
        <ele>195</ele>
        <time>2017-07-09T17:32:12Z</time>
      </trkpt>
      <trkpt lat="45.72235" lon="4.81164">
        <ele>193</ele>
        <time>2017-07-09T17:31:55Z</time>
      </trkpt>
      <trkpt lat="45.72074" lon="4.81113">
        <ele>189</ele>
        <time>2017-07-09T17:31:25Z</time>
      </trkpt>
      <trkpt lat="45.71952" lon="4.81059">
        <ele>186</ele>
        <time>2017-07-09T17:30:55Z</time>
      </trkpt>
      <trkpt lat="45.71929" lon="4.8105">
        <ele>184</ele>
        <time>2017-07-09T17:30:49Z</time>
      </trkpt>
      <trkpt lat="45.71794" lon="4.80994">
        <ele>176</ele>
        <time>2017-07-09T17:30:17Z</time>
      </trkpt>
      <trkpt lat="45.71754" lon="4.80978">
        <ele>176</ele>
        <time>2017-07-09T17:30:09Z</time>
      </trkpt>
      <trkpt lat="45.71749" lon="4.80969">
        <ele>176</ele>
        <time>2017-07-09T17:30:07Z</time>
      </trkpt>
      <trkpt lat="45.71748" lon="4.80957">
        <ele>176</ele>
        <time>2017-07-09T17:30:05Z</time>
      </trkpt>
      <trkpt lat="45.71797" lon="4.80858">
        <ele>173</ele>
        <time>2017-07-09T17:29:46Z</time>
      </trkpt>
      <trkpt lat="45.71895" lon="4.8072">
        <ele>174</ele>
        <time>2017-07-09T17:29:23Z</time>
      </trkpt>
      <trkpt lat="45.7192" lon="4.8068">
        <ele>175</ele>
        <time>2017-07-09T17:29:17Z</time>
      </trkpt>
      <trkpt lat="45.71939" lon="4.80638">
        <ele>176</ele>
        <time>2017-07-09T17:29:08Z</time>
      </trkpt>
      <trkpt lat="45.71944" lon="4.80626">
        <ele>177</ele>
        <time>2017-07-09T17:29:06Z</time>
      </trkpt>
      <trkpt lat="45.71949" lon="4.80604">
        <ele>177</ele>
        <time>2017-07-09T17:29:03Z</time>
      </trkpt>
      <trkpt lat="45.71957" lon="4.80508">
        <ele>178</ele>
        <time>2017-07-09T17:28:53Z</time>
      </trkpt>
      <trkpt lat="45.71959" lon="4.80471">
        <ele>178</ele>
        <time>2017-07-09T17:28:49Z</time>
      </trkpt>
      <trkpt lat="45.71968" lon="4.80254">
        <ele>179</ele>
        <time>2017-07-09T17:28:19Z</time>
      </trkpt>
      <trkpt lat="45.7198" lon="4.80024">
        <ele>175</ele>
        <time>2017-07-09T17:27:49Z</time>
      </trkpt>
      <trkpt lat="45.71984" lon="4.79926">
        <ele>176</ele>
        <time>2017-07-09T17:27:39Z</time>
      </trkpt>
      <trkpt lat="45.71987" lon="4.79864">
        <ele>178</ele>
        <time>2017-07-09T17:27:31Z</time>
      </trkpt>
      <trkpt lat="45.71995" lon="4.79841">
        <ele>178</ele>
        <time>2017-07-09T17:27:27Z</time>
      </trkpt>
      <trkpt lat="45.72119" lon="4.79667">
        <ele>176</ele>
        <time>2017-07-09T17:27:00Z</time>
      </trkpt>
      <trkpt lat="45.72128" lon="4.79648">
        <ele>175</ele>
        <time>2017-07-09T17:26:58Z</time>
      </trkpt>
      <trkpt lat="45.72133" lon="4.79626">
        <ele>174</ele>
        <time>2017-07-09T17:26:56Z</time>
      </trkpt>
      <trkpt lat="45.72158" lon="4.79282">
        <ele>179</ele>
        <time>2017-07-09T17:26:26Z</time>
      </trkpt>
      <trkpt lat="45.72173" lon="4.79029">
        <ele>176</ele>
        <time>2017-07-09T17:25:56Z</time>
      </trkpt>
      <trkpt lat="45.72194" lon="4.78763">
        <ele>179</ele>
        <time>2017-07-09T17:25:26Z</time>
      </trkpt>
      <trkpt lat="45.72261" lon="4.78495">
        <ele>181</ele>
        <time>2017-07-09T17:24:58Z</time>
      </trkpt>
      <trkpt lat="45.723" lon="4.78415">
        <ele>182</ele>
        <time>2017-07-09T17:24:49Z</time>
      </trkpt>
      <trkpt lat="45.72425" lon="4.78289">
        <ele>182</ele>
        <time>2017-07-09T17:24:29Z</time>
      </trkpt>
      <trkpt lat="45.72432" lon="4.78276">
        <ele>183</ele>
        <time>2017-07-09T17:24:27Z</time>
      </trkpt>
      <trkpt lat="45.72443" lon="4.78245">
        <ele>183</ele>
        <time>2017-07-09T17:24:23Z</time>
      </trkpt>
      <trkpt lat="45.7245" lon="4.78202">
        <ele>183</ele>
        <time>2017-07-09T17:24:18Z</time>
      </trkpt>
      <trkpt lat="45.72439" lon="4.78054">
        <ele>185</ele>
        <time>2017-07-09T17:24:01Z</time>
      </trkpt>
      <trkpt lat="45.72435" lon="4.78012">
        <ele>187</ele>
        <time>2017-07-09T17:23:55Z</time>
      </trkpt>
      <trkpt lat="45.72435" lon="4.77991">
        <ele>187</ele>
        <time>2017-07-09T17:23:51Z</time>
      </trkpt>
      <trkpt lat="45.72431" lon="4.77985">
        <ele>186</ele>
        <time>2017-07-09T17:23:20Z</time>
      </trkpt>
      <trkpt lat="45.72433" lon="4.77978">
        <ele>186</ele>
        <time>2017-07-09T17:23:12Z</time>
      </trkpt>
      <trkpt lat="45.72429" lon="4.77927">
        <ele>189</ele>
        <time>2017-07-09T17:23:02Z</time>
      </trkpt>
      <trkpt lat="45.7243" lon="4.77921">
        <ele>190</ele>
        <time>2017-07-09T17:23:00Z</time>
      </trkpt>
      <trkpt lat="45.72513" lon="4.77828">
        <ele>196</ele>
        <time>2017-07-09T17:22:47Z</time>
      </trkpt>
      <trkpt lat="45.72525" lon="4.77807">
        <ele>197</ele>
        <time>2017-07-09T17:22:45Z</time>
      </trkpt>
      <trkpt lat="45.72527" lon="4.77794">
        <ele>197</ele>
        <time>2017-07-09T17:22:44Z</time>
      </trkpt>
      <trkpt lat="45.72525" lon="4.77778">
        <ele>198</ele>
        <time>2017-07-09T17:22:43Z</time>
      </trkpt>
      <trkpt lat="45.72421" lon="4.77686">
        <ele>208</ele>
        <time>2017-07-09T17:22:31Z</time>
      </trkpt>
      <trkpt lat="45.72407" lon="4.77665">
        <ele>212</ele>
        <time>2017-07-09T17:22:29Z</time>
      </trkpt>
      <trkpt lat="45.72404" lon="4.77654">
        <ele>213</ele>
        <time>2017-07-09T17:22:28Z</time>
      </trkpt>
      <trkpt lat="45.72403" lon="4.77641">
        <ele>214</ele>
        <time>2017-07-09T17:22:27Z</time>
      </trkpt>
      <trkpt lat="45.72405" lon="4.77615">
        <ele>214</ele>
        <time>2017-07-09T17:22:25Z</time>
      </trkpt>
      <trkpt lat="45.72395" lon="4.77488">
        <ele>216</ele>
        <time>2017-07-09T17:22:16Z</time>
      </trkpt>
      <trkpt lat="45.72387" lon="4.77382">
        <ele>222</ele>
        <time>2017-07-09T17:22:08Z</time>
      </trkpt>
      <trkpt lat="45.72387" lon="4.77366">
        <ele>222</ele>
        <time>2017-07-09T17:22:07Z</time>
      </trkpt>
      <trkpt lat="45.72395" lon="4.77355">
        <ele>222</ele>
        <time>2017-07-09T17:22:06Z</time>
      </trkpt>
      <trkpt lat="45.72541" lon="4.77246">
        <ele>229</ele>
        <time>2017-07-09T17:21:49Z</time>
      </trkpt>
      <trkpt lat="45.72572" lon="4.77237">
        <ele>231</ele>
        <time>2017-07-09T17:21:45Z</time>
      </trkpt>
      <trkpt lat="45.72579" lon="4.77233">
        <ele>231</ele>
        <time>2017-07-09T17:21:44Z</time>
      </trkpt>
      <trkpt lat="45.72586" lon="4.77226">
        <ele>231</ele>
        <time>2017-07-09T17:21:43Z</time>
      </trkpt>
      <trkpt lat="45.72592" lon="4.77215">
        <ele>232</ele>
        <time>2017-07-09T17:21:42Z</time>
      </trkpt>
      <trkpt lat="45.72591" lon="4.77201">
        <ele>232</ele>
        <time>2017-07-09T17:21:41Z</time>
      </trkpt>
      <trkpt lat="45.72583" lon="4.77159">
        <ele>233</ele>
        <time>2017-07-09T17:21:38Z</time>
      </trkpt>
      <trkpt lat="45.72578" lon="4.77148">
        <ele>233</ele>
        <time>2017-07-09T17:21:37Z</time>
      </trkpt>
      <trkpt lat="45.72565" lon="4.77134">
        <ele>234</ele>
        <time>2017-07-09T17:21:36Z</time>
      </trkpt>
      <trkpt lat="45.72559" lon="4.77137">
        <ele>234</ele>
        <time>2017-07-09T17:21:35Z</time>
      </trkpt>
      <trkpt lat="45.72549" lon="4.77153">
        <ele>235</ele>
        <time>2017-07-09T17:21:33Z</time>
      </trkpt>
      <trkpt lat="45.72538" lon="4.7719">
        <ele>236</ele>
        <time>2017-07-09T17:21:30Z</time>
      </trkpt>
      <trkpt lat="45.72532" lon="4.77201">
        <ele>237</ele>
        <time>2017-07-09T17:21:29Z</time>
      </trkpt>
      <trkpt lat="45.72524" lon="4.77209">
        <ele>237</ele>
        <time>2017-07-09T17:21:28Z</time>
      </trkpt>
      <trkpt lat="45.72389" lon="4.77222">
        <ele>246</ele>
        <time>2017-07-09T17:21:16Z</time>
      </trkpt>
      <trkpt lat="45.72355" lon="4.77218">
        <ele>248</ele>
        <time>2017-07-09T17:21:13Z</time>
      </trkpt>
      <trkpt lat="45.72312" lon="4.77201">
        <ele>251</ele>
        <time>2017-07-09T17:21:09Z</time>
      </trkpt>
      <trkpt lat="45.72297" lon="4.7718">
        <ele>253</ele>
        <time>2017-07-09T17:21:07Z</time>
      </trkpt>
      <trkpt lat="45.72293" lon="4.77165">
        <ele>254</ele>
        <time>2017-07-09T17:21:06Z</time>
      </trkpt>
      <trkpt lat="45.72293" lon="4.77118">
        <ele>257</ele>
        <time>2017-07-09T17:21:03Z</time>
      </trkpt>
      <trkpt lat="45.7229" lon="4.77101">
        <ele>259</ele>
        <time>2017-07-09T17:21:02Z</time>
      </trkpt>
      <trkpt lat="45.72269" lon="4.77064">
        <ele>262</ele>
        <time>2017-07-09T17:20:59Z</time>
      </trkpt>
      <trkpt lat="45.72266" lon="4.77049">
        <ele>263</ele>
        <time>2017-07-09T17:20:58Z</time>
      </trkpt>
      <trkpt lat="45.72272" lon="4.76854">
        <ele>269</ele>
        <time>2017-07-09T17:20:46Z</time>
      </trkpt>
      <trkpt lat="45.72271" lon="4.76824">
        <ele>271</ele>
        <time>2017-07-09T17:20:44Z</time>
      </trkpt>
      <trkpt lat="45.72268" lon="4.76809">
        <ele>272</ele>
        <time>2017-07-09T17:20:43Z</time>
      </trkpt>
      <trkpt lat="45.72263" lon="4.76797">
        <ele>273</ele>
        <time>2017-07-09T17:20:42Z</time>
      </trkpt>
      <trkpt lat="45.72255" lon="4.76787">
        <ele>273</ele>
        <time>2017-07-09T17:20:41Z</time>
      </trkpt>
      <trkpt lat="45.7222" lon="4.76765">
        <ele>276</ele>
        <time>2017-07-09T17:20:37Z</time>
      </trkpt>
      <trkpt lat="45.7221" lon="4.76758">
        <ele>277</ele>
        <time>2017-07-09T17:20:36Z</time>
      </trkpt>
      <trkpt lat="45.722" lon="4.76749">
        <ele>277</ele>
        <time>2017-07-09T17:20:35Z</time>
      </trkpt>
      <trkpt lat="45.72204" lon="4.76736">
        <ele>278</ele>
        <time>2017-07-09T17:20:34Z</time>
      </trkpt>
      <trkpt lat="45.72215" lon="4.7671">
        <ele>278</ele>
        <time>2017-07-09T17:20:32Z</time>
      </trkpt>
      <trkpt lat="45.72234" lon="4.76701">
        <ele>279</ele>
        <time>2017-07-09T17:20:30Z</time>
      </trkpt>
      <trkpt lat="45.72295" lon="4.76702">
        <ele>282</ele>
        <time>2017-07-09T17:20:24Z</time>
      </trkpt>
      <trkpt lat="45.72315" lon="4.76696">
        <ele>284</ele>
        <time>2017-07-09T17:20:22Z</time>
      </trkpt>
      <trkpt lat="45.72412" lon="4.76643">
        <ele>290</ele>
        <time>2017-07-09T17:20:12Z</time>
      </trkpt>
      <trkpt lat="45.7242" lon="4.76633">
        <ele>291</ele>
        <time>2017-07-09T17:20:11Z</time>
      </trkpt>
      <trkpt lat="45.72425" lon="4.76621">
        <ele>292</ele>
        <time>2017-07-09T17:20:09Z</time>
      </trkpt>
      <trkpt lat="45.72428" lon="4.76608">
        <ele>293</ele>
        <time>2017-07-09T17:20:08Z</time>
      </trkpt>
      <trkpt lat="45.72429" lon="4.76593">
        <ele>294</ele>
        <time>2017-07-09T17:20:07Z</time>
      </trkpt>
      <trkpt lat="45.72428" lon="4.76579">
        <ele>295</ele>
        <time>2017-07-09T17:20:06Z</time>
      </trkpt>
      <trkpt lat="45.72413" lon="4.76566">
        <ele>296</ele>
        <time>2017-07-09T17:20:04Z</time>
      </trkpt>
      <trkpt lat="45.72362" lon="4.76562">
        <ele>299</ele>
        <time>2017-07-09T17:19:59Z</time>
      </trkpt>
      <trkpt lat="45.72344" lon="4.76553">
        <ele>300</ele>
        <time>2017-07-09T17:19:57Z</time>
      </trkpt>
      <trkpt lat="45.72248" lon="4.76453">
        <ele>302</ele>
        <time>2017-07-09T17:19:45Z</time>
      </trkpt>
      <trkpt lat="45.72174" lon="4.76308">
        <ele>307</ele>
        <time>2017-07-09T17:19:31Z</time>
      </trkpt>
      <trkpt lat="45.72082" lon="4.75985">
        <ele>313</ele>
        <time>2017-07-09T17:19:03Z</time>
      </trkpt>
      <trkpt lat="45.72079" lon="4.75977">
        <ele>314</ele>
        <time>2017-07-09T17:19:02Z</time>
      </trkpt>
      <trkpt lat="45.72073" lon="4.75972">
        <ele>314</ele>
        <time>2017-07-09T17:19:01Z</time>
      </trkpt>
      <trkpt lat="45.72052" lon="4.75964">
        <ele>314</ele>
        <time>2017-07-09T17:18:58Z</time>
      </trkpt>
      <trkpt lat="45.72018" lon="4.75942">
        <ele>315</ele>
        <time>2017-07-09T17:18:53Z</time>
      </trkpt>
      <trkpt lat="45.72012" lon="4.75935">
        <ele>315</ele>
        <time>2017-07-09T17:18:52Z</time>
      </trkpt>
      <trkpt lat="45.71946" lon="4.75852">
        <ele>315</ele>
        <time>2017-07-09T17:18:41Z</time>
      </trkpt>
      <trkpt lat="45.71844" lon="4.75599">
        <ele>318</ele>
        <time>2017-07-09T17:18:17Z</time>
      </trkpt>
      <trkpt lat="45.71712" lon="4.75313">
        <ele>319</ele>
        <time>2017-07-09T17:17:46Z</time>
      </trkpt>
      <trkpt lat="45.71709" lon="4.75301">
        <ele>320</ele>
        <time>2017-07-09T17:17:44Z</time>
      </trkpt>
      <trkpt lat="45.71711" lon="4.75289">
        <ele>322</ele>
        <time>2017-07-09T17:17:42Z</time>
      </trkpt>
      <trkpt lat="45.71715" lon="4.75279">
        <ele>323</ele>
        <time>2017-07-09T17:17:40Z</time>
      </trkpt>
      <trkpt lat="45.71716" lon="4.7527">
        <ele>323</ele>
        <time>2017-07-09T17:17:39Z</time>
      </trkpt>
      <trkpt lat="45.71703" lon="4.75196">
        <ele>324</ele>
        <time>2017-07-09T17:17:32Z</time>
      </trkpt>
      <trkpt lat="45.71703" lon="4.75184">
        <ele>324</ele>
        <time>2017-07-09T17:17:31Z</time>
      </trkpt>
      <trkpt lat="45.71658" lon="4.7502">
        <ele>331</ele>
        <time>2017-07-09T17:17:16Z</time>
      </trkpt>
      <trkpt lat="45.71648" lon="4.74985">
        <ele>332</ele>
        <time>2017-07-09T17:17:13Z</time>
      </trkpt>
      <trkpt lat="45.71649" lon="4.74974">
        <ele>332</ele>
        <time>2017-07-09T17:17:12Z</time>
      </trkpt>
      <trkpt lat="45.71638" lon="4.74942">
        <ele>331</ele>
        <time>2017-07-09T17:17:09Z</time>
      </trkpt>
      <trkpt lat="45.71615" lon="4.74874">
        <ele>334</ele>
        <time>2017-07-09T17:17:02Z</time>
      </trkpt>
      <trkpt lat="45.71586" lon="4.74716">
        <ele>335</ele>
        <time>2017-07-09T17:16:47Z</time>
      </trkpt>
      <trkpt lat="45.71523" lon="4.74589">
        <ele>337</ele>
        <time>2017-07-09T17:16:29Z</time>
      </trkpt>
      <trkpt lat="45.71514" lon="4.74573">
        <ele>336</ele>
        <time>2017-07-09T17:16:26Z</time>
      </trkpt>
      <trkpt lat="45.71505" lon="4.74562">
        <ele>336</ele>
        <time>2017-07-09T17:16:24Z</time>
      </trkpt>
      <trkpt lat="45.71496" lon="4.74537">
        <ele>335</ele>
        <time>2017-07-09T17:16:20Z</time>
      </trkpt>
      <trkpt lat="45.71498" lon="4.74529">
        <ele>335</ele>
        <time>2017-07-09T17:16:19Z</time>
      </trkpt>
      <trkpt lat="45.71485" lon="4.74483">
        <ele>333</ele>
        <time>2017-07-09T17:16:12Z</time>
      </trkpt>
      <trkpt lat="45.71482" lon="4.74471">
        <ele>333</ele>
        <time>2017-07-09T17:16:10Z</time>
      </trkpt>
      <trkpt lat="45.71481" lon="4.74439">
        <ele>332</ele>
        <time>2017-07-09T17:16:05Z</time>
      </trkpt>
      <trkpt lat="45.71469" lon="4.74334">
        <ele>330</ele>
        <time>2017-07-09T17:15:52Z</time>
      </trkpt>
      <trkpt lat="45.71413" lon="4.7419">
        <ele>329</ele>
        <time>2017-07-09T17:15:32Z</time>
      </trkpt>
      <trkpt lat="45.71393" lon="4.74158">
        <ele>328</ele>
        <time>2017-07-09T17:15:27Z</time>
      </trkpt>
      <trkpt lat="45.71246" lon="4.74022">
        <ele>324</ele>
        <time>2017-07-09T17:14:56Z</time>
      </trkpt>
      <trkpt lat="45.71184" lon="4.73971">
        <ele>320</ele>
        <time>2017-07-09T17:14:44Z</time>
      </trkpt>
      <trkpt lat="45.7118" lon="4.73968">
        <ele>320</ele>
        <time>2017-07-09T17:14:43Z</time>
      </trkpt>
      <trkpt lat="45.71127" lon="4.73922">
        <ele>321</ele>
        <time>2017-07-09T17:14:32Z</time>
      </trkpt>
      <trkpt lat="45.71118" lon="4.73913">
        <ele>322</ele>
        <time>2017-07-09T17:14:30Z</time>
      </trkpt>
      <trkpt lat="45.71113" lon="4.73912">
        <ele>322</ele>
        <time>2017-07-09T17:14:29Z</time>
      </trkpt>
      <trkpt lat="45.71104" lon="4.73916">
        <ele>322</ele>
        <time>2017-07-09T17:14:27Z</time>
      </trkpt>
      <trkpt lat="45.711" lon="4.73915">
        <ele>322</ele>
        <time>2017-07-09T17:14:26Z</time>
      </trkpt>
      <trkpt lat="45.71098" lon="4.73907">
        <ele>322</ele>
        <time>2017-07-09T17:14:25Z</time>
      </trkpt>
      <trkpt lat="45.71091" lon="4.73891">
        <ele>323</ele>
        <time>2017-07-09T17:14:22Z</time>
      </trkpt>
      <trkpt lat="45.71085" lon="4.73886">
        <ele>322</ele>
        <time>2017-07-09T17:14:20Z</time>
      </trkpt>
      <trkpt lat="45.71081" lon="4.73885">
        <ele>322</ele>
        <time>2017-07-09T17:14:18Z</time>
      </trkpt>
      <trkpt lat="45.71074" lon="4.7388">
        <ele>320</ele>
        <time>2017-07-09T17:11:47Z</time>
      </trkpt>
      <trkpt lat="45.7107" lon="4.73875">
        <ele>320</ele>
        <time>2017-07-09T17:11:44Z</time>
      </trkpt>
      <trkpt lat="45.71065" lon="4.73866">
        <ele>320</ele>
        <time>2017-07-09T17:11:37Z</time>
      </trkpt>
      <trkpt lat="45.7106" lon="4.7386">
        <ele>320</ele>
        <time>2017-07-09T17:11:35Z</time>
      </trkpt>
      <trkpt lat="45.71053" lon="4.73853">
        <ele>320</ele>
        <time>2017-07-09T17:11:33Z</time>
      </trkpt>
      <trkpt lat="45.70916" lon="4.73697">
        <ele>317</ele>
        <time>2017-07-09T17:11:03Z</time>
      </trkpt>
      <trkpt lat="45.7091" lon="4.73692">
        <ele>317</ele>
        <time>2017-07-09T17:11:02Z</time>
      </trkpt>
      <trkpt lat="45.70904" lon="4.7369">
        <ele>317</ele>
        <time>2017-07-09T17:11:01Z</time>
      </trkpt>
      <trkpt lat="45.70892" lon="4.73692">
        <ele>318</ele>
        <time>2017-07-09T17:10:59Z</time>
      </trkpt>
      <trkpt lat="45.70886" lon="4.73691">
        <ele>318</ele>
        <time>2017-07-09T17:10:58Z</time>
      </trkpt>
      <trkpt lat="45.70881" lon="4.73687">
        <ele>319</ele>
        <time>2017-07-09T17:10:57Z</time>
      </trkpt>
      <trkpt lat="45.70878" lon="4.7368">
        <ele>319</ele>
        <time>2017-07-09T17:10:56Z</time>
      </trkpt>
      <trkpt lat="45.70877" lon="4.73671">
        <ele>319</ele>
        <time>2017-07-09T17:10:55Z</time>
      </trkpt>
      <trkpt lat="45.70875" lon="4.73653">
        <ele>318</ele>
        <time>2017-07-09T17:10:53Z</time>
      </trkpt>
      <trkpt lat="45.70871" lon="4.73646">
        <ele>318</ele>
        <time>2017-07-09T17:10:52Z</time>
      </trkpt>
      <trkpt lat="45.70857" lon="4.7363">
        <ele>318</ele>
        <time>2017-07-09T17:10:49Z</time>
      </trkpt>
      <trkpt lat="45.7071" lon="4.73481">
        <ele>316</ele>
        <time>2017-07-09T17:10:19Z</time>
      </trkpt>
      <trkpt lat="45.70601" lon="4.7334">
        <ele>310</ele>
        <time>2017-07-09T17:09:56Z</time>
      </trkpt>
      <trkpt lat="45.70577" lon="4.73304">
        <ele>311</ele>
        <time>2017-07-09T17:09:51Z</time>
      </trkpt>
      <trkpt lat="45.70387" lon="4.7316">
        <ele>316</ele>
        <time>2017-07-09T17:09:22Z</time>
      </trkpt>
      <trkpt lat="45.70336" lon="4.73098">
        <ele>316</ele>
        <time>2017-07-09T17:09:13Z</time>
      </trkpt>
      <trkpt lat="45.70196" lon="4.72878">
        <ele>315</ele>
        <time>2017-07-09T17:08:43Z</time>
      </trkpt>
      <trkpt lat="45.70107" lon="4.7266">
        <ele>313</ele>
        <time>2017-07-09T17:08:12Z</time>
      </trkpt>
      <trkpt lat="45.70091" lon="4.72611">
        <ele>312</ele>
        <time>2017-07-09T17:08:05Z</time>
      </trkpt>
      <trkpt lat="45.70089" lon="4.72604">
        <ele>312</ele>
        <time>2017-07-09T17:08:04Z</time>
      </trkpt>
      <trkpt lat="45.70077" lon="4.72523">
        <ele>309</ele>
        <time>2017-07-09T17:07:53Z</time>
      </trkpt>
      <trkpt lat="45.70071" lon="4.72382">
        <ele>306</ele>
        <time>2017-07-09T17:07:35Z</time>
      </trkpt>
      <trkpt lat="45.70084" lon="4.72306">
        <ele>304</ele>
        <time>2017-07-09T17:07:26Z</time>
      </trkpt>
      <trkpt lat="45.70085" lon="4.72299">
        <ele>305</ele>
        <time>2017-07-09T17:07:25Z</time>
      </trkpt>
      <trkpt lat="45.70087" lon="4.7228">
        <ele>305</ele>
        <time>2017-07-09T17:07:23Z</time>
      </trkpt>
      <trkpt lat="45.70084" lon="4.72253">
        <ele>304</ele>
        <time>2017-07-09T17:07:20Z</time>
      </trkpt>
      <trkpt lat="45.70045" lon="4.71976">
        <ele>307</ele>
        <time>2017-07-09T17:06:49Z</time>
      </trkpt>
      <trkpt lat="45.70042" lon="4.71952">
        <ele>306</ele>
        <time>2017-07-09T17:06:46Z</time>
      </trkpt>
      <trkpt lat="45.70039" lon="4.71908">
        <ele>307</ele>
        <time>2017-07-09T17:06:40Z</time>
      </trkpt>
      <trkpt lat="45.70036" lon="4.71873">
        <ele>305</ele>
        <time>2017-07-09T17:06:34Z</time>
      </trkpt>
      <trkpt lat="45.70034" lon="4.71862">
        <ele>304</ele>
        <time>2017-07-09T17:06:32Z</time>
      </trkpt>
      <trkpt lat="45.69986" lon="4.71779">
        <ele>300</ele>
        <time>2017-07-09T17:06:14Z</time>
      </trkpt>
      <trkpt lat="45.69967" lon="4.71723">
        <ele>296</ele>
        <time>2017-07-09T17:06:04Z</time>
      </trkpt>
      <trkpt lat="45.69951" lon="4.7167">
        <ele>295</ele>
        <time>2017-07-09T17:05:55Z</time>
      </trkpt>
      <trkpt lat="45.69937" lon="4.71619">
        <ele>292</ele>
        <time>2017-07-09T17:05:46Z</time>
      </trkpt>
      <trkpt lat="45.69935" lon="4.71613">
        <ele>292</ele>
        <time>2017-07-09T17:05:45Z</time>
      </trkpt>
      <trkpt lat="45.69933" lon="4.71607">
        <ele>292</ele>
        <time>2017-07-09T17:05:44Z</time>
      </trkpt>
      <trkpt lat="45.69928" lon="4.71595">
        <ele>292</ele>
        <time>2017-07-09T17:05:42Z</time>
      </trkpt>
      <trkpt lat="45.69897" lon="4.71545">
        <ele>293</ele>
        <time>2017-07-09T17:05:32Z</time>
      </trkpt>
      <trkpt lat="45.69886" lon="4.71515">
        <ele>292</ele>
        <time>2017-07-09T17:05:26Z</time>
      </trkpt>
      <trkpt lat="45.69878" lon="4.71477">
        <ele>289</ele>
        <time>2017-07-09T17:05:18Z</time>
      </trkpt>
      <trkpt lat="45.69876" lon="4.71399">
        <ele>285</ele>
        <time>2017-07-09T17:05:02Z</time>
      </trkpt>
      <trkpt lat="45.69876" lon="4.7137">
        <ele>286</ele>
        <time>2017-07-09T17:04:56Z</time>
      </trkpt>
      <trkpt lat="45.69875" lon="4.71361">
        <ele>286</ele>
        <time>2017-07-09T17:04:54Z</time>
      </trkpt>
      <trkpt lat="45.69873" lon="4.71309">
        <ele>283</ele>
        <time>2017-07-09T17:04:44Z</time>
      </trkpt>
      <trkpt lat="45.69875" lon="4.71289">
        <ele>283</ele>
        <time>2017-07-09T17:04:40Z</time>
      </trkpt>
      <trkpt lat="45.69888" lon="4.71254">
        <ele>281</ele>
        <time>2017-07-09T17:04:32Z</time>
      </trkpt>
      <trkpt lat="45.69898" lon="4.71239">
        <ele>280</ele>
        <time>2017-07-09T17:04:28Z</time>
      </trkpt>
      <trkpt lat="45.69944" lon="4.71213">
        <ele>278</ele>
        <time>2017-07-09T17:04:14Z</time>
      </trkpt>
      <trkpt lat="45.6995" lon="4.71208">
        <ele>278</ele>
        <time>2017-07-09T17:04:12Z</time>
      </trkpt>
      <trkpt lat="45.69956" lon="4.712">
        <ele>277</ele>
        <time>2017-07-09T17:04:10Z</time>
      </trkpt>
      <trkpt lat="45.69959" lon="4.71191">
        <ele>276</ele>
        <time>2017-07-09T17:04:08Z</time>
      </trkpt>
      <trkpt lat="45.6996" lon="4.7118">
        <ele>276</ele>
        <time>2017-07-09T17:04:06Z</time>
      </trkpt>
      <trkpt lat="45.69956" lon="4.71161">
        <ele>275</ele>
        <time>2017-07-09T17:04:02Z</time>
      </trkpt>
      <trkpt lat="45.6995" lon="4.71153">
        <ele>275</ele>
        <time>2017-07-09T17:04:00Z</time>
      </trkpt>
      <trkpt lat="45.69944" lon="4.71149">
        <ele>274</ele>
        <time>2017-07-09T17:03:58Z</time>
      </trkpt>
      <trkpt lat="45.69937" lon="4.71147">
        <ele>273</ele>
        <time>2017-07-09T17:03:56Z</time>
      </trkpt>
      <trkpt lat="45.69931" lon="4.71149">
        <ele>273</ele>
        <time>2017-07-09T17:03:54Z</time>
      </trkpt>
      <trkpt lat="45.69918" lon="4.71158">
        <ele>273</ele>
        <time>2017-07-09T17:03:50Z</time>
      </trkpt>
      <trkpt lat="45.69907" lon="4.71167">
        <ele>274</ele>
        <time>2017-07-09T17:03:46Z</time>
      </trkpt>
      <trkpt lat="45.69854" lon="4.71218">
        <ele>272</ele>
        <time>2017-07-09T17:03:28Z</time>
      </trkpt>
      <trkpt lat="45.69829" lon="4.71244">
        <ele>270</ele>
        <time>2017-07-09T17:03:20Z</time>
      </trkpt>
      <trkpt lat="45.69816" lon="4.71259">
        <ele>270</ele>
        <time>2017-07-09T17:03:16Z</time>
      </trkpt>
      <trkpt lat="45.69799" lon="4.71315">
        <ele>267</ele>
        <time>2017-07-09T17:03:06Z</time>
      </trkpt>
      <trkpt lat="45.69794" lon="4.71323">
        <ele>267</ele>
        <time>2017-07-09T17:03:04Z</time>
      </trkpt>
      <trkpt lat="45.69786" lon="4.71327">
        <ele>266</ele>
        <time>2017-07-09T17:03:02Z</time>
      </trkpt>
      <trkpt lat="45.69779" lon="4.71325">
        <ele>266</ele>
        <time>2017-07-09T17:03:00Z</time>
      </trkpt>
      <trkpt lat="45.69772" lon="4.7132">
        <ele>265</ele>
        <time>2017-07-09T17:02:58Z</time>
      </trkpt>
      <trkpt lat="45.69767" lon="4.71312">
        <ele>264</ele>
        <time>2017-07-09T17:02:56Z</time>
      </trkpt>
      <trkpt lat="45.69765" lon="4.71301">
        <ele>264</ele>
        <time>2017-07-09T17:02:54Z</time>
      </trkpt>
      <trkpt lat="45.69766" lon="4.7129">
        <ele>263</ele>
        <time>2017-07-09T17:02:52Z</time>
      </trkpt>
      <trkpt lat="45.69769" lon="4.7128">
        <ele>263</ele>
        <time>2017-07-09T17:02:50Z</time>
      </trkpt>
      <trkpt lat="45.6982" lon="4.71169">
        <ele>267</ele>
        <time>2017-07-09T17:02:30Z</time>
      </trkpt>
      <trkpt lat="45.69831" lon="4.71152">
        <ele>268</ele>
        <time>2017-07-09T17:02:28Z</time>
      </trkpt>
      <trkpt lat="45.69829" lon="4.71133">
        <ele>269</ele>
        <time>2017-07-09T17:02:26Z</time>
      </trkpt>
      <trkpt lat="45.69818" lon="4.71107">
        <ele>270</ele>
        <time>2017-07-09T17:02:23Z</time>
      </trkpt>
      <trkpt lat="45.6981" lon="4.71102">
        <ele>270</ele>
        <time>2017-07-09T17:02:22Z</time>
      </trkpt>
      <trkpt lat="45.69793" lon="4.71098">
        <ele>270</ele>
        <time>2017-07-09T17:02:20Z</time>
      </trkpt>
      <trkpt lat="45.69747" lon="4.7112">
        <ele>271</ele>
        <time>2017-07-09T17:02:15Z</time>
      </trkpt>
      <trkpt lat="45.6973" lon="4.71122">
        <ele>271</ele>
        <time>2017-07-09T17:02:13Z</time>
      </trkpt>
      <trkpt lat="45.69695" lon="4.71115">
        <ele>273</ele>
        <time>2017-07-09T17:02:09Z</time>
      </trkpt>
      <trkpt lat="45.69643" lon="4.71082">
        <ele>274</ele>
        <time>2017-07-09T17:02:03Z</time>
      </trkpt>
      <trkpt lat="45.6957" lon="4.70986">
        <ele>277</ele>
        <time>2017-07-09T17:01:53Z</time>
      </trkpt>
      <trkpt lat="45.69525" lon="4.70958">
        <ele>280</ele>
        <time>2017-07-09T17:01:48Z</time>
      </trkpt>
      <trkpt lat="45.69509" lon="4.70941">
        <ele>282</ele>
        <time>2017-07-09T17:01:46Z</time>
      </trkpt>
      <trkpt lat="45.69491" lon="4.70909">
        <ele>284</ele>
        <time>2017-07-09T17:01:43Z</time>
      </trkpt>
      <trkpt lat="45.69474" lon="4.70893">
        <ele>285</ele>
        <time>2017-07-09T17:01:41Z</time>
      </trkpt>
      <trkpt lat="45.69454" lon="4.70885">
        <ele>287</ele>
        <time>2017-07-09T17:01:39Z</time>
      </trkpt>
      <trkpt lat="45.69445" lon="4.70887">
        <ele>288</ele>
        <time>2017-07-09T17:01:38Z</time>
      </trkpt>
      <trkpt lat="45.69408" lon="4.7092">
        <ele>291</ele>
        <time>2017-07-09T17:01:34Z</time>
      </trkpt>
      <trkpt lat="45.69398" lon="4.70923">
        <ele>291</ele>
        <time>2017-07-09T17:01:33Z</time>
      </trkpt>
      <trkpt lat="45.69388" lon="4.70924">
        <ele>292</ele>
        <time>2017-07-09T17:01:32Z</time>
      </trkpt>
      <trkpt lat="45.69277" lon="4.70888">
        <ele>300</ele>
        <time>2017-07-09T17:01:21Z</time>
      </trkpt>
      <trkpt lat="45.69014" lon="4.70744">
        <ele>311</ele>
        <time>2017-07-09T17:00:51Z</time>
      </trkpt>
      <trkpt lat="45.68876" lon="4.70698">
        <ele>315</ele>
        <time>2017-07-09T17:00:34Z</time>
      </trkpt>
      <trkpt lat="45.68851" lon="4.70687">
        <ele>315</ele>
        <time>2017-07-09T17:00:29Z</time>
      </trkpt>
      <trkpt lat="45.68844" lon="4.70688">
        <ele>315</ele>
        <time>2017-07-09T17:00:27Z</time>
      </trkpt>
      <trkpt lat="45.68841" lon="4.70694">
        <ele>315</ele>
        <time>2017-07-09T17:00:24Z</time>
      </trkpt>
      <trkpt lat="45.68826" lon="4.70739">
        <ele>319</ele>
        <time>2017-07-09T17:00:17Z</time>
      </trkpt>
      <trkpt lat="45.68821" lon="4.70745">
        <ele>320</ele>
        <time>2017-07-09T17:00:16Z</time>
      </trkpt>
      <trkpt lat="45.68818" lon="4.7076">
        <ele>321</ele>
        <time>2017-07-09T17:00:14Z</time>
      </trkpt>
      <trkpt lat="45.68785" lon="4.70854">
        <ele>325</ele>
        <time>2017-07-09T17:00:00Z</time>
      </trkpt>
      <trkpt lat="45.68729" lon="4.70935">
        <ele>326</ele>
        <time>2017-07-09T16:59:44Z</time>
      </trkpt>
      <trkpt lat="45.6873" lon="4.70943">
        <ele>325</ele>
        <time>2017-07-09T16:59:42Z</time>
      </trkpt>
      <trkpt lat="45.68731" lon="4.7095">
        <ele>325</ele>
        <time>2017-07-09T16:59:40Z</time>
      </trkpt>
      <trkpt lat="45.68728" lon="4.70958">
        <ele>327</ele>
        <time>2017-07-09T16:59:37Z</time>
      </trkpt>
      <trkpt lat="45.68722" lon="4.70959">
        <ele>327</ele>
        <time>2017-07-09T16:58:49Z</time>
      </trkpt>
      <trkpt lat="45.68716" lon="4.70952">
        <ele>327</ele>
        <time>2017-07-09T16:58:47Z</time>
      </trkpt>
      <trkpt lat="45.68708" lon="4.70939">
        <ele>327</ele>
        <time>2017-07-09T16:58:45Z</time>
      </trkpt>
      <trkpt lat="45.68597" lon="4.70836">
        <ele>332</ele>
        <time>2017-07-09T16:58:31Z</time>
      </trkpt>
      <trkpt lat="45.68458" lon="4.70643">
        <ele>347</ele>
        <time>2017-07-09T16:58:10Z</time>
      </trkpt>
      <trkpt lat="45.68442" lon="4.70631">
        <ele>347</ele>
        <time>2017-07-09T16:58:07Z</time>
      </trkpt>
      <trkpt lat="45.68428" lon="4.70608">
        <ele>348</ele>
        <time>2017-07-09T16:58:04Z</time>
      </trkpt>
      <trkpt lat="45.68357" lon="4.70516">
        <ele>350</ele>
        <time>2017-07-09T16:57:50Z</time>
      </trkpt>
      <trkpt lat="45.68321" lon="4.70451">
        <ele>348</ele>
        <time>2017-07-09T16:57:39Z</time>
      </trkpt>
      <trkpt lat="45.68242" lon="4.70356">
        <ele>347</ele>
        <time>2017-07-09T16:57:20Z</time>
      </trkpt>
      <trkpt lat="45.68234" lon="4.70344">
        <ele>347</ele>
        <time>2017-07-09T16:57:18Z</time>
      </trkpt>
      <trkpt lat="45.68233" lon="4.70324">
        <ele>347</ele>
        <time>2017-07-09T16:57:15Z</time>
      </trkpt>
      <trkpt lat="45.68234" lon="4.70315">
        <ele>347</ele>
        <time>2017-07-09T16:57:13Z</time>
      </trkpt>
      <trkpt lat="45.6824" lon="4.7031">
        <ele>347</ele>
        <time>2017-07-09T16:57:11Z</time>
      </trkpt>
      <trkpt lat="45.68258" lon="4.70306">
        <ele>349</ele>
        <time>2017-07-09T16:57:07Z</time>
      </trkpt>
      <trkpt lat="45.68262" lon="4.70297">
        <ele>350</ele>
        <time>2017-07-09T16:57:05Z</time>
      </trkpt>
      <trkpt lat="45.68282" lon="4.70236">
        <ele>352</ele>
        <time>2017-07-09T16:56:58Z</time>
      </trkpt>
      <trkpt lat="45.68284" lon="4.70227">
        <ele>352</ele>
        <time>2017-07-09T16:56:57Z</time>
      </trkpt>
      <trkpt lat="45.68282" lon="4.70191">
        <ele>352</ele>
        <time>2017-07-09T16:56:53Z</time>
      </trkpt>
      <trkpt lat="45.68284" lon="4.70174">
        <ele>352</ele>
        <time>2017-07-09T16:56:51Z</time>
      </trkpt>
      <trkpt lat="45.68325" lon="4.7008">
        <ele>354</ele>
        <time>2017-07-09T16:56:38Z</time>
      </trkpt>
      <trkpt lat="45.68351" lon="4.69993">
        <ele>356</ele>
        <time>2017-07-09T16:56:28Z</time>
      </trkpt>
      <trkpt lat="45.68351" lon="4.69985">
        <ele>356</ele>
        <time>2017-07-09T16:56:27Z</time>
      </trkpt>
      <trkpt lat="45.68349" lon="4.69977">
        <ele>356</ele>
        <time>2017-07-09T16:56:26Z</time>
      </trkpt>
      <trkpt lat="45.68318" lon="4.69935">
        <ele>354</ele>
        <time>2017-07-09T16:56:19Z</time>
      </trkpt>
      <trkpt lat="45.68288" lon="4.69889">
        <ele>356</ele>
        <time>2017-07-09T16:56:12Z</time>
      </trkpt>
      <trkpt lat="45.68223" lon="4.69823">
        <ele>359</ele>
        <time>2017-07-09T16:55:58Z</time>
      </trkpt>
      <trkpt lat="45.68217" lon="4.69821">
        <ele>359</ele>
        <time>2017-07-09T16:55:56Z</time>
      </trkpt>
      <trkpt lat="45.68214" lon="4.69813">
        <ele>360</ele>
        <time>2017-07-09T16:55:54Z</time>
      </trkpt>
      <trkpt lat="45.68209" lon="4.69809">
        <ele>360</ele>
        <time>2017-07-09T16:55:53Z</time>
      </trkpt>
      <trkpt lat="45.68085" lon="4.6972">
        <ele>365</ele>
        <time>2017-07-09T16:55:32Z</time>
      </trkpt>
      <trkpt lat="45.6808" lon="4.69722">
        <ele>365</ele>
        <time>2017-07-09T16:55:30Z</time>
      </trkpt>
      <trkpt lat="45.68075" lon="4.69728">
        <ele>365</ele>
        <time>2017-07-09T16:55:27Z</time>
      </trkpt>
      <trkpt lat="45.68026" lon="4.6981">
        <ele>364</ele>
        <time>2017-07-09T16:55:03Z</time>
      </trkpt>
      <trkpt lat="45.68022" lon="4.69817">
        <ele>367</ele>
        <time>2017-07-09T16:55:01Z</time>
      </trkpt>
      <trkpt lat="45.68013" lon="4.69833">
        <ele>367</ele>
        <time>2017-07-09T16:54:57Z</time>
      </trkpt>
      <trkpt lat="45.68009" lon="4.6984">
        <ele>368</ele>
        <time>2017-07-09T16:54:55Z</time>
      </trkpt>
      <trkpt lat="45.68001" lon="4.69856">
        <ele>368</ele>
        <time>2017-07-09T16:54:51Z</time>
      </trkpt>
      <trkpt lat="45.67995" lon="4.69875">
        <ele>368</ele>
        <time>2017-07-09T16:54:47Z</time>
      </trkpt>
      <trkpt lat="45.67986" lon="4.6992">
        <ele>365</ele>
        <time>2017-07-09T16:54:37Z</time>
      </trkpt>
      <trkpt lat="45.67969" lon="4.69992">
        <ele>365</ele>
        <time>2017-07-09T16:54:24Z</time>
      </trkpt>
      <trkpt lat="45.67969" lon="4.70005">
        <ele>365</ele>
        <time>2017-07-09T16:54:22Z</time>
      </trkpt>
      <trkpt lat="45.67975" lon="4.70012">
        <ele>365</ele>
        <time>2017-07-09T16:54:20Z</time>
      </trkpt>
      <trkpt lat="45.68019" lon="4.7003">
        <ele>362</ele>
        <time>2017-07-09T16:54:09Z</time>
      </trkpt>
      <trkpt lat="45.68019" lon="4.70028">
        <ele>362</ele>
        <time>2017-07-09T16:54:03Z</time>
      </trkpt>
      <trkpt lat="45.67985" lon="4.70015">
        <ele>359</ele>
        <time>2017-07-09T16:53:56Z</time>
      </trkpt>
      <trkpt lat="45.67978" lon="4.70011">
        <ele>358</ele>
        <time>2017-07-09T16:53:54Z</time>
      </trkpt>
      <trkpt lat="45.6797" lon="4.70016">
        <ele>357</ele>
        <time>2017-07-09T16:53:52Z</time>
      </trkpt>
      <trkpt lat="45.67965" lon="4.70027">
        <ele>357</ele>
        <time>2017-07-09T16:53:50Z</time>
      </trkpt>
      <trkpt lat="45.67961" lon="4.70031">
        <ele>357</ele>
        <time>2017-07-09T16:53:49Z</time>
      </trkpt>
      <trkpt lat="45.67952" lon="4.70032">
        <ele>357</ele>
        <time>2017-07-09T16:53:47Z</time>
      </trkpt>
      <trkpt lat="45.67891" lon="4.70015">
        <ele>358</ele>
        <time>2017-07-09T16:53:34Z</time>
      </trkpt>
      <trkpt lat="45.67882" lon="4.70011">
        <ele>357</ele>
        <time>2017-07-09T16:53:32Z</time>
      </trkpt>
      <trkpt lat="45.67878" lon="4.70011">
        <ele>356</ele>
        <time>2017-07-09T16:53:31Z</time>
      </trkpt>
      <trkpt lat="45.67871" lon="4.70017">
        <ele>355</ele>
        <time>2017-07-09T16:53:29Z</time>
      </trkpt>
      <trkpt lat="45.6787" lon="4.70028">
        <ele>353</ele>
        <time>2017-07-09T16:53:27Z</time>
      </trkpt>
      <trkpt lat="45.6787" lon="4.70039">
        <ele>352</ele>
        <time>2017-07-09T16:53:25Z</time>
      </trkpt>
      <trkpt lat="45.6787" lon="4.7005">
        <ele>351</ele>
        <time>2017-07-09T16:53:23Z</time>
      </trkpt>
      <trkpt lat="45.67873" lon="4.70084">
        <ele>351</ele>
        <time>2017-07-09T16:53:17Z</time>
      </trkpt>
      <trkpt lat="45.67874" lon="4.7013">
        <ele>352</ele>
        <time>2017-07-09T16:53:09Z</time>
      </trkpt>
      <trkpt lat="45.67879" lon="4.70212">
        <ele>347</ele>
        <time>2017-07-09T16:52:55Z</time>
      </trkpt>
      <trkpt lat="45.67878" lon="4.70218">
        <ele>346</ele>
        <time>2017-07-09T16:52:54Z</time>
      </trkpt>
      <trkpt lat="45.67873" lon="4.70244">
        <ele>343</ele>
        <time>2017-07-09T16:52:50Z</time>
      </trkpt>
      <trkpt lat="45.67852" lon="4.70294">
        <ele>343</ele>
        <time>2017-07-09T16:52:42Z</time>
      </trkpt>
      <trkpt lat="45.67843" lon="4.70302">
        <ele>343</ele>
        <time>2017-07-09T16:52:40Z</time>
      </trkpt>
      <trkpt lat="45.67833" lon="4.70301">
        <ele>343</ele>
        <time>2017-07-09T16:52:38Z</time>
      </trkpt>
      <trkpt lat="45.67817" lon="4.70294">
        <ele>345</ele>
        <time>2017-07-09T16:52:35Z</time>
      </trkpt>
      <trkpt lat="45.67745" lon="4.70216">
        <ele>346</ele>
        <time>2017-07-09T16:52:22Z</time>
      </trkpt>
      <trkpt lat="45.67716" lon="4.70193">
        <ele>346</ele>
        <time>2017-07-09T16:52:18Z</time>
      </trkpt>
      <trkpt lat="45.67545" lon="4.70129">
        <ele>345</ele>
        <time>2017-07-09T16:51:47Z</time>
      </trkpt>
      <trkpt lat="45.675" lon="4.70117">
        <ele>343</ele>
        <time>2017-07-09T16:51:38Z</time>
      </trkpt>
      <trkpt lat="45.6749" lon="4.70119">
        <ele>342</ele>
        <time>2017-07-09T16:51:36Z</time>
      </trkpt>
      <trkpt lat="45.6748" lon="4.7012">
        <ele>341</ele>
        <time>2017-07-09T16:51:34Z</time>
      </trkpt>
      <trkpt lat="45.67455" lon="4.70116">
        <ele>340</ele>
        <time>2017-07-09T16:51:29Z</time>
      </trkpt>
      <trkpt lat="45.67441" lon="4.70106">
        <ele>339</ele>
        <time>2017-07-09T16:51:26Z</time>
      </trkpt>
      <trkpt lat="45.67418" lon="4.70078">
        <ele>338</ele>
        <time>2017-07-09T16:51:20Z</time>
      </trkpt>
      <trkpt lat="45.67405" lon="4.70065">
        <ele>337</ele>
        <time>2017-07-09T16:51:17Z</time>
      </trkpt>
      <trkpt lat="45.67394" lon="4.70061">
        <ele>337</ele>
        <time>2017-07-09T16:51:15Z</time>
      </trkpt>
      <trkpt lat="45.67372" lon="4.70064">
        <ele>337</ele>
        <time>2017-07-09T16:51:11Z</time>
      </trkpt>
      <trkpt lat="45.67367" lon="4.70063">
        <ele>337</ele>
        <time>2017-07-09T16:51:10Z</time>
      </trkpt>
      <trkpt lat="45.67362" lon="4.70059">
        <ele>337</ele>
        <time>2017-07-09T16:51:09Z</time>
      </trkpt>
      <trkpt lat="45.67316" lon="4.70004">
        <ele>334</ele>
        <time>2017-07-09T16:50:57Z</time>
      </trkpt>
      <trkpt lat="45.67281" lon="4.69954">
        <ele>330</ele>
        <time>2017-07-09T16:50:47Z</time>
      </trkpt>
      <trkpt lat="45.6725" lon="4.69907">
        <ele>328</ele>
        <time>2017-07-09T16:50:40Z</time>
      </trkpt>
      <trkpt lat="45.67236" lon="4.69892">
        <ele>329</ele>
        <time>2017-07-09T16:50:38Z</time>
      </trkpt>
      <trkpt lat="45.67228" lon="4.69888">
        <ele>329</ele>
        <time>2017-07-09T16:50:37Z</time>
      </trkpt>
      <trkpt lat="45.67177" lon="4.69889">
        <ele>331</ele>
        <time>2017-07-09T16:50:32Z</time>
      </trkpt>
      <trkpt lat="45.67127" lon="4.69864">
        <ele>333</ele>
        <time>2017-07-09T16:50:27Z</time>
      </trkpt>
      <trkpt lat="45.67118" lon="4.69865">
        <ele>334</ele>
        <time>2017-07-09T16:50:26Z</time>
      </trkpt>
      <trkpt lat="45.67111" lon="4.69871">
        <ele>334</ele>
        <time>2017-07-09T16:50:25Z</time>
      </trkpt>
      <trkpt lat="45.67099" lon="4.69887">
        <ele>336</ele>
        <time>2017-07-09T16:50:23Z</time>
      </trkpt>
      <trkpt lat="45.67083" lon="4.69939">
        <ele>338</ele>
        <time>2017-07-09T16:50:18Z</time>
      </trkpt>
      <trkpt lat="45.67044" lon="4.70041">
        <ele>339</ele>
        <time>2017-07-09T16:50:07Z</time>
      </trkpt>
      <trkpt lat="45.66999" lon="4.70121">
        <ele>343</ele>
        <time>2017-07-09T16:49:58Z</time>
      </trkpt>
      <trkpt lat="45.6687" lon="4.70272">
        <ele>348</ele>
        <time>2017-07-09T16:49:33Z</time>
      </trkpt>
      <trkpt lat="45.66864" lon="4.70272">
        <ele>346</ele>
        <time>2017-07-09T16:49:14Z</time>
      </trkpt>
      <trkpt lat="45.66865" lon="4.70265">
        <ele>345</ele>
        <time>2017-07-09T16:48:39Z</time>
      </trkpt>
      <trkpt lat="45.66862" lon="4.70258">
        <ele>344</ele>
        <time>2017-07-09T16:48:33Z</time>
      </trkpt>
      <trkpt lat="45.66857" lon="4.70257">
        <ele>344</ele>
        <time>2017-07-09T16:48:31Z</time>
      </trkpt>
      <trkpt lat="45.66827" lon="4.70253">
        <ele>339</ele>
        <time>2017-07-09T16:48:23Z</time>
      </trkpt>
      <trkpt lat="45.66718" lon="4.70268">
        <ele>330</ele>
        <time>2017-07-09T16:47:57Z</time>
      </trkpt>
      <trkpt lat="45.66694" lon="4.70269">
        <ele>329</ele>
        <time>2017-07-09T16:47:51Z</time>
      </trkpt>
      <trkpt lat="45.66678" lon="4.70273">
        <ele>329</ele>
        <time>2017-07-09T16:47:47Z</time>
      </trkpt>
      <trkpt lat="45.66621" lon="4.70273">
        <ele>330</ele>
        <time>2017-07-09T16:47:34Z</time>
      </trkpt>
      <trkpt lat="45.66597" lon="4.70285">
        <ele>331</ele>
        <time>2017-07-09T16:47:28Z</time>
      </trkpt>
      <trkpt lat="45.66589" lon="4.7029">
        <ele>331</ele>
        <time>2017-07-09T16:47:26Z</time>
      </trkpt>
      <trkpt lat="45.66575" lon="4.70304">
        <ele>330</ele>
        <time>2017-07-09T16:47:22Z</time>
      </trkpt>
      <trkpt lat="45.66565" lon="4.70317">
        <ele>329</ele>
        <time>2017-07-09T16:47:19Z</time>
      </trkpt>
      <trkpt lat="45.66553" lon="4.70362">
        <ele>327</ele>
        <time>2017-07-09T16:47:11Z</time>
      </trkpt>
      <trkpt lat="45.66522" lon="4.70416">
        <ele>321</ele>
        <time>2017-07-09T16:47:00Z</time>
      </trkpt>
      <trkpt lat="45.66519" lon="4.70427">
        <ele>321</ele>
        <time>2017-07-09T16:46:58Z</time>
      </trkpt>
      <trkpt lat="45.66515" lon="4.70445">
        <ele>321</ele>
        <time>2017-07-09T16:46:55Z</time>
      </trkpt>
      <trkpt lat="45.66504" lon="4.70479">
        <ele>319</ele>
        <time>2017-07-09T16:46:49Z</time>
      </trkpt>
      <trkpt lat="45.66494" lon="4.70497">
        <ele>318</ele>
        <time>2017-07-09T16:46:45Z</time>
      </trkpt>
      <trkpt lat="45.66484" lon="4.70518">
        <ele>318</ele>
        <time>2017-07-09T16:46:41Z</time>
      </trkpt>
      <trkpt lat="45.66478" lon="4.70543">
        <ele>318</ele>
        <time>2017-07-09T16:46:37Z</time>
      </trkpt>
      <trkpt lat="45.66476" lon="4.70593">
        <ele>318</ele>
        <time>2017-07-09T16:46:29Z</time>
      </trkpt>
      <trkpt lat="45.6649" lon="4.70701">
        <ele>312</ele>
        <time>2017-07-09T16:46:11Z</time>
      </trkpt>
      <trkpt lat="45.66497" lon="4.70757">
        <ele>309</ele>
        <time>2017-07-09T16:46:02Z</time>
      </trkpt>
      <trkpt lat="45.66478" lon="4.70852">
        <ele>304</ele>
        <time>2017-07-09T16:45:45Z</time>
      </trkpt>
      <trkpt lat="45.66476" lon="4.70861">
        <ele>302</ele>
        <time>2017-07-09T16:45:43Z</time>
      </trkpt>
      <trkpt lat="45.66472" lon="4.7088">
        <ele>301</ele>
        <time>2017-07-09T16:45:39Z</time>
      </trkpt>
      <trkpt lat="45.66456" lon="4.70918">
        <ele>299</ele>
        <time>2017-07-09T16:45:31Z</time>
      </trkpt>
      <trkpt lat="45.66443" lon="4.70962">
        <ele>295</ele>
        <time>2017-07-09T16:45:23Z</time>
      </trkpt>
      <trkpt lat="45.66438" lon="4.70984">
        <ele>293</ele>
        <time>2017-07-09T16:45:19Z</time>
      </trkpt>
      <trkpt lat="45.66436" lon="4.70992">
        <ele>293</ele>
        <time>2017-07-09T16:45:18Z</time>
      </trkpt>
      <trkpt lat="45.66414" lon="4.71013">
        <ele>292</ele>
        <time>2017-07-09T16:45:12Z</time>
      </trkpt>
      <trkpt lat="45.66364" lon="4.71068">
        <ele>294</ele>
        <time>2017-07-09T16:44:58Z</time>
      </trkpt>
      <trkpt lat="45.66359" lon="4.71077">
        <ele>295</ele>
        <time>2017-07-09T16:44:56Z</time>
      </trkpt>
      <trkpt lat="45.6635" lon="4.71091">
        <ele>295</ele>
        <time>2017-07-09T16:44:53Z</time>
      </trkpt>
      <trkpt lat="45.66347" lon="4.71098">
        <ele>295</ele>
        <time>2017-07-09T16:44:52Z</time>
      </trkpt>
      <trkpt lat="45.66341" lon="4.71118">
        <ele>293</ele>
        <time>2017-07-09T16:44:48Z</time>
      </trkpt>
      <trkpt lat="45.66295" lon="4.7125">
        <ele>289</ele>
        <time>2017-07-09T16:44:25Z</time>
      </trkpt>
      <trkpt lat="45.66173" lon="4.71512">
        <ele>294</ele>
        <time>2017-07-09T16:43:54Z</time>
      </trkpt>
      <trkpt lat="45.66163" lon="4.71533">
        <ele>295</ele>
        <time>2017-07-09T16:43:52Z</time>
      </trkpt>
      <trkpt lat="45.66131" lon="4.71653">
        <ele>299</ele>
        <time>2017-07-09T16:43:43Z</time>
      </trkpt>
      <trkpt lat="45.66122" lon="4.71678">
        <ele>301</ele>
        <time>2017-07-09T16:43:41Z</time>
      </trkpt>
      <trkpt lat="45.6608" lon="4.71723">
        <ele>301</ele>
        <time>2017-07-09T16:43:36Z</time>
      </trkpt>
      <trkpt lat="45.6604" lon="4.71743">
        <ele>303</ele>
        <time>2017-07-09T16:43:32Z</time>
      </trkpt>
      <trkpt lat="45.66023" lon="4.71754">
        <ele>304</ele>
        <time>2017-07-09T16:43:30Z</time>
      </trkpt>
      <trkpt lat="45.66016" lon="4.71764">
        <ele>305</ele>
        <time>2017-07-09T16:43:29Z</time>
      </trkpt>
      <trkpt lat="45.65998" lon="4.71805">
        <ele>309</ele>
        <time>2017-07-09T16:43:25Z</time>
      </trkpt>
      <trkpt lat="45.65975" lon="4.71836">
        <ele>312</ele>
        <time>2017-07-09T16:43:21Z</time>
      </trkpt>
      <trkpt lat="45.65936" lon="4.71865">
        <ele>317</ele>
        <time>2017-07-09T16:43:14Z</time>
      </trkpt>
      <trkpt lat="45.65923" lon="4.7187">
        <ele>318</ele>
        <time>2017-07-09T16:43:12Z</time>
      </trkpt>
      <trkpt lat="45.65865" lon="4.71865">
        <ele>313</ele>
        <time>2017-07-09T16:43:01Z</time>
      </trkpt>
      <trkpt lat="45.65863" lon="4.71858">
        <ele>314</ele>
        <time>2017-07-09T16:39:51Z</time>
      </trkpt>
      <trkpt lat="45.65873" lon="4.718">
        <ele>319</ele>
        <time>2017-07-09T16:39:43Z</time>
      </trkpt>
      <trkpt lat="45.65872" lon="4.71792">
        <ele>319</ele>
        <time>2017-07-09T16:39:42Z</time>
      </trkpt>
      <trkpt lat="45.65868" lon="4.71783">
        <ele>320</ele>
        <time>2017-07-09T16:39:41Z</time>
      </trkpt>
      <trkpt lat="45.65841" lon="4.71748">
        <ele>321</ele>
        <time>2017-07-09T16:39:36Z</time>
      </trkpt>
      <trkpt lat="45.65835" lon="4.71745">
        <ele>322</ele>
        <time>2017-07-09T16:39:35Z</time>
      </trkpt>
      <trkpt lat="45.65809" lon="4.71706">
        <ele>323</ele>
        <time>2017-07-09T16:39:30Z</time>
      </trkpt>
      <trkpt lat="45.65757" lon="4.716">
        <ele>321</ele>
        <time>2017-07-09T16:39:17Z</time>
      </trkpt>
      <trkpt lat="45.65755" lon="4.71581">
        <ele>321</ele>
        <time>2017-07-09T16:39:15Z</time>
      </trkpt>
      <trkpt lat="45.65748" lon="4.71566">
        <ele>320</ele>
        <time>2017-07-09T16:39:13Z</time>
      </trkpt>
      <trkpt lat="45.6573" lon="4.71543">
        <ele>319</ele>
        <time>2017-07-09T16:39:09Z</time>
      </trkpt>
      <trkpt lat="45.65661" lon="4.71507">
        <ele>315</ele>
        <time>2017-07-09T16:38:56Z</time>
      </trkpt>
      <trkpt lat="45.65641" lon="4.71497">
        <ele>316</ele>
        <time>2017-07-09T16:38:52Z</time>
      </trkpt>
      <trkpt lat="45.65623" lon="4.71476">
        <ele>317</ele>
        <time>2017-07-09T16:38:47Z</time>
      </trkpt>
      <trkpt lat="45.65619" lon="4.71474">
        <ele>317</ele>
        <time>2017-07-09T16:38:46Z</time>
      </trkpt>
      <trkpt lat="45.65607" lon="4.71471">
        <ele>318</ele>
        <time>2017-07-09T16:38:43Z</time>
      </trkpt>
      <trkpt lat="45.65585" lon="4.71462">
        <ele>318</ele>
        <time>2017-07-09T16:38:38Z</time>
      </trkpt>
      <trkpt lat="45.65514" lon="4.71435">
        <ele>315</ele>
        <time>2017-07-09T16:38:23Z</time>
      </trkpt>
      <trkpt lat="45.65457" lon="4.71414">
        <ele>308</ele>
        <time>2017-07-09T16:38:10Z</time>
      </trkpt>
      <trkpt lat="45.65353" lon="4.71324">
        <ele>297</ele>
        <time>2017-07-09T16:37:41Z</time>
      </trkpt>
      <trkpt lat="45.6534" lon="4.71314">
        <ele>297</ele>
        <time>2017-07-09T16:37:38Z</time>
      </trkpt>
      <trkpt lat="45.65335" lon="4.71309">
        <ele>297</ele>
        <time>2017-07-09T16:37:37Z</time>
      </trkpt>
      <trkpt lat="45.65315" lon="4.71297">
        <ele>298</ele>
        <time>2017-07-09T16:37:34Z</time>
      </trkpt>
      <trkpt lat="45.65309" lon="4.71286">
        <ele>298</ele>
        <time>2017-07-09T16:37:33Z</time>
      </trkpt>
      <trkpt lat="45.65292" lon="4.71283">
        <ele>298</ele>
        <time>2017-07-09T16:37:31Z</time>
      </trkpt>
      <trkpt lat="45.65089" lon="4.71316">
        <ele>305</ele>
        <time>2017-07-09T16:37:09Z</time>
      </trkpt>
      <trkpt lat="45.64926" lon="4.71271">
        <ele>308</ele>
        <time>2017-07-09T16:36:50Z</time>
      </trkpt>
      <trkpt lat="45.64669" lon="4.71308">
        <ele>313</ele>
        <time>2017-07-09T16:36:20Z</time>
      </trkpt>
      <trkpt lat="45.64645" lon="4.71318">
        <ele>314</ele>
        <time>2017-07-09T16:36:17Z</time>
      </trkpt>
      <trkpt lat="45.64568" lon="4.71407">
        <ele>314</ele>
        <time>2017-07-09T16:36:05Z</time>
      </trkpt>
      <trkpt lat="45.64362" lon="4.71536">
        <ele>312</ele>
        <time>2017-07-09T16:35:40Z</time>
      </trkpt>
      <trkpt lat="45.6432" lon="4.71572">
        <ele>316</ele>
        <time>2017-07-09T16:35:36Z</time>
      </trkpt>
      <trkpt lat="45.64303" lon="4.71598">
        <ele>319</ele>
        <time>2017-07-09T16:35:34Z</time>
      </trkpt>
      <trkpt lat="45.6429" lon="4.71629">
        <ele>322</ele>
        <time>2017-07-09T16:35:32Z</time>
      </trkpt>
      <trkpt lat="45.64274" lon="4.71713">
        <ele>329</ele>
        <time>2017-07-09T16:35:27Z</time>
      </trkpt>
      <trkpt lat="45.64252" lon="4.71788">
        <ele>333</ele>
        <time>2017-07-09T16:35:22Z</time>
      </trkpt>
      <trkpt lat="45.6421" lon="4.71857">
        <ele>338</ele>
        <time>2017-07-09T16:35:16Z</time>
      </trkpt>
      <trkpt lat="45.6418" lon="4.71955">
        <ele>342</ele>
        <time>2017-07-09T16:35:07Z</time>
      </trkpt>
      <trkpt lat="45.64129" lon="4.72029">
        <ele>340</ele>
        <time>2017-07-09T16:34:56Z</time>
      </trkpt>
      <trkpt lat="45.64121" lon="4.72041">
        <ele>340</ele>
        <time>2017-07-09T16:34:54Z</time>
      </trkpt>
      <trkpt lat="45.64107" lon="4.72085">
        <ele>340</ele>
        <time>2017-07-09T16:34:48Z</time>
      </trkpt>
      <trkpt lat="45.64102" lon="4.72101">
        <ele>341</ele>
        <time>2017-07-09T16:34:46Z</time>
      </trkpt>
      <trkpt lat="45.641" lon="4.72108">
        <ele>341</ele>
        <time>2017-07-09T16:34:45Z</time>
      </trkpt>
      <trkpt lat="45.64114" lon="4.72255">
        <ele>344</ele>
        <time>2017-07-09T16:34:28Z</time>
      </trkpt>
      <trkpt lat="45.64116" lon="4.72262">
        <ele>344</ele>
        <time>2017-07-09T16:34:27Z</time>
      </trkpt>
      <trkpt lat="45.64124" lon="4.72284">
        <ele>344</ele>
        <time>2017-07-09T16:34:24Z</time>
      </trkpt>
      <trkpt lat="45.64134" lon="4.7232">
        <ele>345</ele>
        <time>2017-07-09T16:34:19Z</time>
      </trkpt>
      <trkpt lat="45.64139" lon="4.72349">
        <ele>345</ele>
        <time>2017-07-09T16:34:15Z</time>
      </trkpt>
      <trkpt lat="45.64143" lon="4.72365">
        <ele>344</ele>
        <time>2017-07-09T16:34:13Z</time>
      </trkpt>
      <trkpt lat="45.64144" lon="4.72377">
        <ele>344</ele>
        <time>2017-07-09T16:34:11Z</time>
      </trkpt>
      <trkpt lat="45.64143" lon="4.72386">
        <ele>344</ele>
        <time>2017-07-09T16:34:09Z</time>
      </trkpt>
      <trkpt lat="45.64137" lon="4.72386">
        <ele>343</ele>
        <time>2017-07-09T16:33:44Z</time>
      </trkpt>
      <trkpt lat="45.64131" lon="4.72386">
        <ele>342</ele>
        <time>2017-07-09T16:33:41Z</time>
      </trkpt>
      <trkpt lat="45.64125" lon="4.72387">
        <ele>343</ele>
        <time>2017-07-09T16:33:39Z</time>
      </trkpt>
      <trkpt lat="45.64122" lon="4.72379">
        <ele>342</ele>
        <time>2017-07-09T16:33:35Z</time>
      </trkpt>
      <trkpt lat="45.64117" lon="4.72369">
        <ele>342</ele>
        <time>2017-07-09T16:33:33Z</time>
      </trkpt>
      <trkpt lat="45.64101" lon="4.72362">
        <ele>343</ele>
        <time>2017-07-09T16:33:30Z</time>
      </trkpt>
      <trkpt lat="45.64084" lon="4.72355">
        <ele>343</ele>
        <time>2017-07-09T16:33:27Z</time>
      </trkpt>
      <trkpt lat="45.64078" lon="4.72355">
        <ele>343</ele>
        <time>2017-07-09T16:33:26Z</time>
      </trkpt>
      <trkpt lat="45.64062" lon="4.72359">
        <ele>343</ele>
        <time>2017-07-09T16:33:23Z</time>
      </trkpt>
      <trkpt lat="45.63994" lon="4.72364">
        <ele>344</ele>
        <time>2017-07-09T16:33:12Z</time>
      </trkpt>
      <trkpt lat="45.63989" lon="4.72365">
        <ele>344</ele>
        <time>2017-07-09T16:33:11Z</time>
      </trkpt>
      <trkpt lat="45.63961" lon="4.72366">
        <ele>343</ele>
        <time>2017-07-09T16:33:06Z</time>
      </trkpt>
      <trkpt lat="45.63932" lon="4.72371">
        <ele>344</ele>
        <time>2017-07-09T16:33:00Z</time>
      </trkpt>
      <trkpt lat="45.63915" lon="4.72372">
        <ele>345</ele>
        <time>2017-07-09T16:32:52Z</time>
      </trkpt>
      <trkpt lat="45.63912" lon="4.72364">
        <ele>346</ele>
        <time>2017-07-09T16:32:49Z</time>
      </trkpt>
      <trkpt lat="45.63914" lon="4.72348">
        <ele>347</ele>
        <time>2017-07-09T16:32:45Z</time>
      </trkpt>
      <trkpt lat="45.63913" lon="4.72341">
        <ele>347</ele>
        <time>2017-07-09T16:32:43Z</time>
      </trkpt>
      <trkpt lat="45.63908" lon="4.72337">
        <ele>347</ele>
        <time>2017-07-09T16:32:40Z</time>
      </trkpt>
      <trkpt lat="45.639" lon="4.72332">
        <ele>346</ele>
        <time>2017-07-09T16:32:38Z</time>
      </trkpt>
      <trkpt lat="45.63896" lon="4.7233">
        <ele>346</ele>
        <time>2017-07-09T16:32:37Z</time>
      </trkpt>
      <trkpt lat="45.63891" lon="4.72324">
        <ele>346</ele>
        <time>2017-07-09T16:32:36Z</time>
      </trkpt>
      <trkpt lat="45.63879" lon="4.72302">
        <ele>346</ele>
        <time>2017-07-09T16:32:33Z</time>
      </trkpt>
      <trkpt lat="45.63847" lon="4.7218">
        <ele>347</ele>
        <time>2017-07-09T16:32:21Z</time>
      </trkpt>
      <trkpt lat="45.63797" lon="4.7206">
        <ele>349</ele>
        <time>2017-07-09T16:32:08Z</time>
      </trkpt>
      <trkpt lat="45.63768" lon="4.72012">
        <ele>349</ele>
        <time>2017-07-09T16:32:02Z</time>
      </trkpt>
      <trkpt lat="45.63692" lon="4.71956">
        <ele>350</ele>
        <time>2017-07-09T16:31:48Z</time>
      </trkpt>
      <trkpt lat="45.63678" lon="4.71947">
        <ele>350</ele>
        <time>2017-07-09T16:31:45Z</time>
      </trkpt>
      <trkpt lat="45.63673" lon="4.71939">
        <ele>350</ele>
        <time>2017-07-09T16:31:43Z</time>
      </trkpt>
      <trkpt lat="45.63676" lon="4.7193">
        <ele>350</ele>
        <time>2017-07-09T16:31:41Z</time>
      </trkpt>
      <trkpt lat="45.63679" lon="4.71925">
        <ele>350</ele>
        <time>2017-07-09T16:31:40Z</time>
      </trkpt>
      <trkpt lat="45.6368" lon="4.71919">
        <ele>350</ele>
        <time>2017-07-09T16:31:39Z</time>
      </trkpt>
      <trkpt lat="45.6368" lon="4.71911">
        <ele>350</ele>
        <time>2017-07-09T16:31:38Z</time>
      </trkpt>
      <trkpt lat="45.63657" lon="4.71818">
        <ele>350</ele>
        <time>2017-07-09T16:31:26Z</time>
      </trkpt>
      <trkpt lat="45.63651" lon="4.71668">
        <ele>350</ele>
        <time>2017-07-09T16:31:07Z</time>
      </trkpt>
      <trkpt lat="45.63652" lon="4.71652">
        <ele>350</ele>
        <time>2017-07-09T16:31:05Z</time>
      </trkpt>
      <trkpt lat="45.63652" lon="4.71623">
        <ele>350</ele>
        <time>2017-07-09T16:31:01Z</time>
      </trkpt>
      <trkpt lat="45.63658" lon="4.71521">
        <ele>347</ele>
        <time>2017-07-09T16:30:47Z</time>
      </trkpt>
      <trkpt lat="45.63657" lon="4.71499">
        <ele>347</ele>
        <time>2017-07-09T16:30:44Z</time>
      </trkpt>
      <trkpt lat="45.63654" lon="4.71484">
        <ele>346</ele>
        <time>2017-07-09T16:30:42Z</time>
      </trkpt>
      <trkpt lat="45.6364" lon="4.71455">
        <ele>345</ele>
        <time>2017-07-09T16:30:37Z</time>
      </trkpt>
      <trkpt lat="45.6353" lon="4.71319">
        <ele>341</ele>
        <time>2017-07-09T16:30:09Z</time>
      </trkpt>
      <trkpt lat="45.6352" lon="4.71301">
        <ele>341</ele>
        <time>2017-07-09T16:30:06Z</time>
      </trkpt>
      <trkpt lat="45.63412" lon="4.71091">
        <ele>337</ele>
        <time>2017-07-09T16:29:35Z</time>
      </trkpt>
      <trkpt lat="45.63311" lon="4.7095">
        <ele>333</ele>
        <time>2017-07-09T16:29:10Z</time>
      </trkpt>
      <trkpt lat="45.63276" lon="4.70887">
        <ele>331</ele>
        <time>2017-07-09T16:29:01Z</time>
      </trkpt>
      <trkpt lat="45.63232" lon="4.70828">
        <ele>331</ele>
        <time>2017-07-09T16:28:52Z</time>
      </trkpt>
      <trkpt lat="45.63068" lon="4.70618">
        <ele>332</ele>
        <time>2017-07-09T16:28:21Z</time>
      </trkpt>
      <trkpt lat="45.63021" lon="4.7052">
        <ele>332</ele>
        <time>2017-07-09T16:28:10Z</time>
      </trkpt>
      <trkpt lat="45.62956" lon="4.70402">
        <ele>333</ele>
        <time>2017-07-09T16:27:56Z</time>
      </trkpt>
      <trkpt lat="45.62831" lon="4.70274">
        <ele>334</ele>
        <time>2017-07-09T16:27:36Z</time>
      </trkpt>
      <trkpt lat="45.62645" lon="4.70171">
        <ele>336</ele>
        <time>2017-07-09T16:27:08Z</time>
      </trkpt>
      <trkpt lat="45.62587" lon="4.70128">
        <ele>336</ele>
        <time>2017-07-09T16:26:57Z</time>
      </trkpt>
      <trkpt lat="45.62501" lon="4.7001">
        <ele>338</ele>
        <time>2017-07-09T16:26:37Z</time>
      </trkpt>
      <trkpt lat="45.62482" lon="4.69989">
        <ele>337</ele>
        <time>2017-07-09T16:26:33Z</time>
      </trkpt>
      <trkpt lat="45.62448" lon="4.69954">
        <ele>337</ele>
        <time>2017-07-09T16:26:27Z</time>
      </trkpt>
      <trkpt lat="45.62437" lon="4.69927">
        <ele>338</ele>
        <time>2017-07-09T16:26:24Z</time>
      </trkpt>
      <trkpt lat="45.62424" lon="4.69875">
        <ele>338</ele>
        <time>2017-07-09T16:26:18Z</time>
      </trkpt>
      <trkpt lat="45.62424" lon="4.69858">
        <ele>338</ele>
        <time>2017-07-09T16:26:16Z</time>
      </trkpt>
      <trkpt lat="45.6245" lon="4.69755">
        <ele>337</ele>
        <time>2017-07-09T16:26:02Z</time>
      </trkpt>
      <trkpt lat="45.62451" lon="4.69738">
        <ele>337</ele>
        <time>2017-07-09T16:26:00Z</time>
      </trkpt>
      <trkpt lat="45.62449" lon="4.69721">
        <ele>337</ele>
        <time>2017-07-09T16:25:58Z</time>
      </trkpt>
      <trkpt lat="45.62418" lon="4.69612">
        <ele>336</ele>
        <time>2017-07-09T16:25:42Z</time>
      </trkpt>
      <trkpt lat="45.62373" lon="4.69429">
        <ele>331</ele>
        <time>2017-07-09T16:25:13Z</time>
      </trkpt>
      <trkpt lat="45.62372" lon="4.69422">
        <ele>330</ele>
        <time>2017-07-09T16:25:12Z</time>
      </trkpt>
      <trkpt lat="45.62362" lon="4.69399">
        <ele>329</ele>
        <time>2017-07-09T16:25:08Z</time>
      </trkpt>
      <trkpt lat="45.62318" lon="4.6935">
        <ele>328</ele>
        <time>2017-07-09T16:24:56Z</time>
      </trkpt>
      <trkpt lat="45.62264" lon="4.69191">
        <ele>322</ele>
        <time>2017-07-09T16:24:35Z</time>
      </trkpt>
      <trkpt lat="45.62215" lon="4.69106">
        <ele>325</ele>
        <time>2017-07-09T16:24:27Z</time>
      </trkpt>
      <trkpt lat="45.62122" lon="4.68886">
        <ele>332</ele>
        <time>2017-07-09T16:24:08Z</time>
      </trkpt>
      <trkpt lat="45.6198" lon="4.68529">
        <ele>347</ele>
        <time>2017-07-09T16:23:38Z</time>
      </trkpt>
      <trkpt lat="45.61974" lon="4.68522">
        <ele>347</ele>
        <time>2017-07-09T16:23:37Z</time>
      </trkpt>
      <trkpt lat="45.61968" lon="4.68518">
        <ele>348</ele>
        <time>2017-07-09T16:23:36Z</time>
      </trkpt>
      <trkpt lat="45.6196" lon="4.68517">
        <ele>348</ele>
        <time>2017-07-09T16:23:35Z</time>
      </trkpt>
      <trkpt lat="45.61946" lon="4.68523">
        <ele>349</ele>
        <time>2017-07-09T16:23:33Z</time>
      </trkpt>
      <trkpt lat="45.61935" lon="4.68535">
        <ele>351</ele>
        <time>2017-07-09T16:23:31Z</time>
      </trkpt>
      <trkpt lat="45.61923" lon="4.68544">
        <ele>352</ele>
        <time>2017-07-09T16:23:29Z</time>
      </trkpt>
      <trkpt lat="45.619" lon="4.6855">
        <ele>354</ele>
        <time>2017-07-09T16:23:24Z</time>
      </trkpt>
      <trkpt lat="45.61896" lon="4.68547">
        <ele>354</ele>
        <time>2017-07-09T16:23:22Z</time>
      </trkpt>
      <trkpt lat="45.61897" lon="4.68539">
        <ele>355</ele>
        <time>2017-07-09T16:23:20Z</time>
      </trkpt>
      <trkpt lat="45.61898" lon="4.68529">
        <ele>355</ele>
        <time>2017-07-09T16:23:18Z</time>
      </trkpt>
      <trkpt lat="45.61903" lon="4.68385">
        <ele>359</ele>
        <time>2017-07-09T16:23:06Z</time>
      </trkpt>
      <trkpt lat="45.61873" lon="4.68114">
        <ele>367</ele>
        <time>2017-07-09T16:22:44Z</time>
      </trkpt>
      <trkpt lat="45.61818" lon="4.67978">
        <ele>371</ele>
        <time>2017-07-09T16:22:29Z</time>
      </trkpt>
      <trkpt lat="45.61811" lon="4.67945">
        <ele>371</ele>
        <time>2017-07-09T16:22:25Z</time>
      </trkpt>
      <trkpt lat="45.61808" lon="4.67901">
        <ele>371</ele>
        <time>2017-07-09T16:22:19Z</time>
      </trkpt>
      <trkpt lat="45.61807" lon="4.67873">
        <ele>370</ele>
        <time>2017-07-09T16:22:14Z</time>
      </trkpt>
      <trkpt lat="45.61805" lon="4.67866">
        <ele>369</ele>
        <time>2017-07-09T16:22:09Z</time>
      </trkpt>
      <trkpt lat="45.61806" lon="4.67859">
        <ele>368</ele>
        <time>2017-07-09T16:21:02Z</time>
      </trkpt>
      <trkpt lat="45.61805" lon="4.67851">
        <ele>368</ele>
        <time>2017-07-09T16:21:00Z</time>
      </trkpt>
      <trkpt lat="45.61802" lon="4.67837">
        <ele>368</ele>
        <time>2017-07-09T16:20:58Z</time>
      </trkpt>
      <trkpt lat="45.618" lon="4.67824">
        <ele>367</ele>
        <time>2017-07-09T16:20:56Z</time>
      </trkpt>
      <trkpt lat="45.61801" lon="4.67816">
        <ele>367</ele>
        <time>2017-07-09T16:20:55Z</time>
      </trkpt>
      <trkpt lat="45.6181" lon="4.67799">
        <ele>366</ele>
        <time>2017-07-09T16:20:52Z</time>
      </trkpt>
      <trkpt lat="45.61813" lon="4.67794">
        <ele>366</ele>
        <time>2017-07-09T16:20:51Z</time>
      </trkpt>
      <trkpt lat="45.61816" lon="4.67787">
        <ele>366</ele>
        <time>2017-07-09T16:20:50Z</time>
      </trkpt>
      <trkpt lat="45.61815" lon="4.67757">
        <ele>366</ele>
        <time>2017-07-09T16:20:46Z</time>
      </trkpt>
      <trkpt lat="45.61838" lon="4.67651">
        <ele>366</ele>
        <time>2017-07-09T16:20:32Z</time>
      </trkpt>
      <trkpt lat="45.61841" lon="4.67634">
        <ele>366</ele>
        <time>2017-07-09T16:20:30Z</time>
      </trkpt>
      <trkpt lat="45.61839" lon="4.67627">
        <ele>366</ele>
        <time>2017-07-09T16:20:29Z</time>
      </trkpt>
      <trkpt lat="45.61831" lon="4.67614">
        <ele>365</ele>
        <time>2017-07-09T16:20:27Z</time>
      </trkpt>
      <trkpt lat="45.61823" lon="4.67608">
        <ele>365</ele>
        <time>2017-07-09T16:20:25Z</time>
      </trkpt>
      <trkpt lat="45.61765" lon="4.6758">
        <ele>363</ele>
        <time>2017-07-09T16:20:14Z</time>
      </trkpt>
      <trkpt lat="45.61639" lon="4.67518">
        <ele>362</ele>
        <time>2017-07-09T16:19:47Z</time>
      </trkpt>
      <trkpt lat="45.61604" lon="4.67472">
        <ele>359</ele>
        <time>2017-07-09T16:19:35Z</time>
      </trkpt>
      <trkpt lat="45.61555" lon="4.67425">
        <ele>354</ele>
        <time>2017-07-09T16:19:21Z</time>
      </trkpt>
      <trkpt lat="45.6155" lon="4.67424">
        <ele>354</ele>
        <time>2017-07-09T16:19:20Z</time>
      </trkpt>
      <trkpt lat="45.61542" lon="4.67426">
        <ele>353</ele>
        <time>2017-07-09T16:19:18Z</time>
      </trkpt>
      <trkpt lat="45.61474" lon="4.6746">
        <ele>352</ele>
        <time>2017-07-09T16:19:03Z</time>
      </trkpt>
      <trkpt lat="45.61448" lon="4.67468">
        <ele>351</ele>
        <time>2017-07-09T16:18:58Z</time>
      </trkpt>
      <trkpt lat="45.61433" lon="4.6747">
        <ele>350</ele>
        <time>2017-07-09T16:18:55Z</time>
      </trkpt>
      <trkpt lat="45.61413" lon="4.67463">
        <ele>350</ele>
        <time>2017-07-09T16:18:51Z</time>
      </trkpt>
      <trkpt lat="45.61374" lon="4.67436">
        <ele>347</ele>
        <time>2017-07-09T16:18:41Z</time>
      </trkpt>
      <trkpt lat="45.61357" lon="4.67428">
        <ele>347</ele>
        <time>2017-07-09T16:18:37Z</time>
      </trkpt>
      <trkpt lat="45.61348" lon="4.67426">
        <ele>347</ele>
        <time>2017-07-09T16:18:35Z</time>
      </trkpt>
      <trkpt lat="45.61339" lon="4.67426">
        <ele>346</ele>
        <time>2017-07-09T16:18:33Z</time>
      </trkpt>
      <trkpt lat="45.61315" lon="4.67439">
        <ele>345</ele>
        <time>2017-07-09T16:18:27Z</time>
      </trkpt>
      <trkpt lat="45.61294" lon="4.67461">
        <ele>344</ele>
        <time>2017-07-09T16:18:21Z</time>
      </trkpt>
      <trkpt lat="45.61279" lon="4.6749">
        <ele>343</ele>
        <time>2017-07-09T16:18:15Z</time>
      </trkpt>
      <trkpt lat="45.61272" lon="4.67512">
        <ele>343</ele>
        <time>2017-07-09T16:18:11Z</time>
      </trkpt>
      <trkpt lat="45.61267" lon="4.67582">
        <ele>341</ele>
        <time>2017-07-09T16:17:59Z</time>
      </trkpt>
      <trkpt lat="45.61258" lon="4.67641">
        <ele>337</ele>
        <time>2017-07-09T16:17:49Z</time>
      </trkpt>
      <trkpt lat="45.61248" lon="4.6766">
        <ele>336</ele>
        <time>2017-07-09T16:17:45Z</time>
      </trkpt>
      <trkpt lat="45.61241" lon="4.67675">
        <ele>335</ele>
        <time>2017-07-09T16:17:42Z</time>
      </trkpt>
      <trkpt lat="45.6122" lon="4.67698">
        <ele>332</ele>
        <time>2017-07-09T16:17:36Z</time>
      </trkpt>
      <trkpt lat="45.61213" lon="4.67705">
        <ele>331</ele>
        <time>2017-07-09T16:17:34Z</time>
      </trkpt>
      <trkpt lat="45.61127" lon="4.67758">
        <ele>333</ele>
        <time>2017-07-09T16:17:13Z</time>
      </trkpt>
      <trkpt lat="45.61122" lon="4.6776">
        <ele>333</ele>
        <time>2017-07-09T16:17:12Z</time>
      </trkpt>
      <trkpt lat="45.61013" lon="4.67879">
        <ele>326</ele>
        <time>2017-07-09T16:16:41Z</time>
      </trkpt>
      <trkpt lat="45.60987" lon="4.67916">
        <ele>327</ele>
        <time>2017-07-09T16:16:33Z</time>
      </trkpt>
      <trkpt lat="45.6098" lon="4.67934">
        <ele>326</ele>
        <time>2017-07-09T16:16:30Z</time>
      </trkpt>
      <trkpt lat="45.60947" lon="4.67987">
        <ele>325</ele>
        <time>2017-07-09T16:16:20Z</time>
      </trkpt>
      <trkpt lat="45.60935" lon="4.68">
        <ele>326</ele>
        <time>2017-07-09T16:16:17Z</time>
      </trkpt>
      <trkpt lat="45.60926" lon="4.68009">
        <ele>326</ele>
        <time>2017-07-09T16:16:15Z</time>
      </trkpt>
      <trkpt lat="45.60914" lon="4.68025">
        <ele>325</ele>
        <time>2017-07-09T16:16:12Z</time>
      </trkpt>
      <trkpt lat="45.60912" lon="4.68032">
        <ele>325</ele>
        <time>2017-07-09T16:16:11Z</time>
      </trkpt>
      <trkpt lat="45.609" lon="4.68047">
        <ele>325</ele>
        <time>2017-07-09T16:16:08Z</time>
      </trkpt>
      <trkpt lat="45.60895" lon="4.68059">
        <ele>325</ele>
        <time>2017-07-09T16:16:06Z</time>
      </trkpt>
      <trkpt lat="45.60891" lon="4.68079">
        <ele>324</ele>
        <time>2017-07-09T16:16:03Z</time>
      </trkpt>
      <trkpt lat="45.60883" lon="4.68112">
        <ele>323</ele>
        <time>2017-07-09T16:15:58Z</time>
      </trkpt>
      <trkpt lat="45.60803" lon="4.68286">
        <ele>314</ele>
        <time>2017-07-09T16:15:26Z</time>
      </trkpt>
      <trkpt lat="45.60711" lon="4.68453">
        <ele>306</ele>
        <time>2017-07-09T16:14:55Z</time>
      </trkpt>
      <trkpt lat="45.60689" lon="4.68482">
        <ele>305</ele>
        <time>2017-07-09T16:14:48Z</time>
      </trkpt>
      <trkpt lat="45.60595" lon="4.68545">
        <ele>301</ele>
        <time>2017-07-09T16:14:25Z</time>
      </trkpt>
      <trkpt lat="45.60573" lon="4.68567">
        <ele>300</ele>
        <time>2017-07-09T16:14:19Z</time>
      </trkpt>
      <trkpt lat="45.60557" lon="4.6859">
        <ele>299</ele>
        <time>2017-07-09T16:14:14Z</time>
      </trkpt>
      <trkpt lat="45.60547" lon="4.68619">
        <ele>298</ele>
        <time>2017-07-09T16:14:09Z</time>
      </trkpt>
      <trkpt lat="45.60521" lon="4.68733">
        <ele>294</ele>
        <time>2017-07-09T16:13:53Z</time>
      </trkpt>
      <trkpt lat="45.60517" lon="4.68773">
        <ele>292</ele>
        <time>2017-07-09T16:13:48Z</time>
      </trkpt>
      <trkpt lat="45.60485" lon="4.68938">
        <ele>292</ele>
        <time>2017-07-09T16:13:30Z</time>
      </trkpt>
      <trkpt lat="45.60481" lon="4.68944">
        <ele>292</ele>
        <time>2017-07-09T16:13:29Z</time>
      </trkpt>
      <trkpt lat="45.60476" lon="4.6895">
        <ele>292</ele>
        <time>2017-07-09T16:13:28Z</time>
      </trkpt>
      <trkpt lat="45.60452" lon="4.68969">
        <ele>291</ele>
        <time>2017-07-09T16:13:23Z</time>
      </trkpt>
      <trkpt lat="45.60449" lon="4.68975">
        <ele>291</ele>
        <time>2017-07-09T16:13:22Z</time>
      </trkpt>
      <trkpt lat="45.60422" lon="4.69026">
        <ele>292</ele>
        <time>2017-07-09T16:13:14Z</time>
      </trkpt>
      <trkpt lat="45.60419" lon="4.69033">
        <ele>292</ele>
        <time>2017-07-09T16:13:13Z</time>
      </trkpt>
      <trkpt lat="45.60408" lon="4.69048">
        <ele>293</ele>
        <time>2017-07-09T16:13:10Z</time>
      </trkpt>
      <trkpt lat="45.604" lon="4.69045">
        <ele>294</ele>
        <time>2017-07-09T16:13:06Z</time>
      </trkpt>
      <trkpt lat="45.60398" lon="4.69037">
        <ele>296</ele>
        <time>2017-07-09T16:12:58Z</time>
      </trkpt>
      <trkpt lat="45.60404" lon="4.69017">
        <ele>296</ele>
        <time>2017-07-09T16:12:54Z</time>
      </trkpt>
      <trkpt lat="45.60404" lon="4.69008">
        <ele>296</ele>
        <time>2017-07-09T16:12:52Z</time>
      </trkpt>
      <trkpt lat="45.60402" lon="4.69001">
        <ele>294</ele>
        <time>2017-07-09T16:12:48Z</time>
      </trkpt>
      <trkpt lat="45.60395" lon="4.68996">
        <ele>294</ele>
        <time>2017-07-09T16:11:42Z</time>
      </trkpt>
      <trkpt lat="45.60393" lon="4.68993">
        <ele>295</ele>
        <time>2017-07-09T16:08:52Z</time>
      </trkpt>
      <trkpt lat="45.60396" lon="4.68999">
        <ele>295</ele>
        <time>2017-07-09T16:08:44Z</time>
      </trkpt>
      <trkpt lat="45.60399" lon="4.69004">
        <ele>292</ele>
        <time>2017-07-09T16:07:36Z</time>
      </trkpt>
      <trkpt lat="45.60399" lon="4.69012">
        <ele>292</ele>
        <time>2017-07-09T16:07:34Z</time>
      </trkpt>
      <trkpt lat="45.60397" lon="4.69021">
        <ele>292</ele>
        <time>2017-07-09T16:07:32Z</time>
      </trkpt>
      <trkpt lat="45.60396" lon="4.69028">
        <ele>292</ele>
        <time>2017-07-09T16:07:30Z</time>
      </trkpt>
      <trkpt lat="45.604" lon="4.69032">
        <ele>292</ele>
        <time>2017-07-09T16:07:27Z</time>
      </trkpt>
      <trkpt lat="45.60405" lon="4.69031">
        <ele>291</ele>
        <time>2017-07-09T16:07:23Z</time>
      </trkpt>
      <trkpt lat="45.60407" lon="4.69038">
        <ele>290</ele>
        <time>2017-07-09T16:07:19Z</time>
      </trkpt>
      <trkpt lat="45.6041" lon="4.69048">
        <ele>290</ele>
        <time>2017-07-09T16:07:17Z</time>
      </trkpt>
      <trkpt lat="45.60407" lon="4.69059">
        <ele>290</ele>
        <time>2017-07-09T16:07:15Z</time>
      </trkpt>
      <trkpt lat="45.60399" lon="4.69076">
        <ele>291</ele>
        <time>2017-07-09T16:07:12Z</time>
      </trkpt>
      <trkpt lat="45.60388" lon="4.69086">
        <ele>292</ele>
        <time>2017-07-09T16:07:09Z</time>
      </trkpt>
      <trkpt lat="45.60381" lon="4.69087">
        <ele>293</ele>
        <time>2017-07-09T16:07:07Z</time>
      </trkpt>
      <trkpt lat="45.60376" lon="4.69089">
        <ele>293</ele>
        <time>2017-07-09T16:07:06Z</time>
      </trkpt>
      <trkpt lat="45.60366" lon="4.69086">
        <ele>294</ele>
        <time>2017-07-09T16:07:04Z</time>
      </trkpt>
      <trkpt lat="45.60134" lon="4.69203">
        <ele>307</ele>
        <time>2017-07-09T16:06:40Z</time>
      </trkpt>
      <trkpt lat="45.60071" lon="4.69225">
        <ele>310</ele>
        <time>2017-07-09T16:06:34Z</time>
      </trkpt>
      <trkpt lat="45.6003" lon="4.69241">
        <ele>312</ele>
        <time>2017-07-09T16:06:30Z</time>
      </trkpt>
      <trkpt lat="45.59893" lon="4.69413">
        <ele>321</ele>
        <time>2017-07-09T16:06:13Z</time>
      </trkpt>
      <trkpt lat="45.59866" lon="4.6943">
        <ele>322</ele>
        <time>2017-07-09T16:06:10Z</time>
      </trkpt>
      <trkpt lat="45.59819" lon="4.69438">
        <ele>323</ele>
        <time>2017-07-09T16:06:05Z</time>
      </trkpt>
      <trkpt lat="45.59629" lon="4.69533">
        <ele>329</ele>
        <time>2017-07-09T16:05:42Z</time>
      </trkpt>
      <trkpt lat="45.59583" lon="4.69547">
        <ele>331</ele>
        <time>2017-07-09T16:05:36Z</time>
      </trkpt>
      <trkpt lat="45.59483" lon="4.69538">
        <ele>329</ele>
        <time>2017-07-09T16:05:22Z</time>
      </trkpt>
      <trkpt lat="45.59346" lon="4.69583">
        <ele>328</ele>
        <time>2017-07-09T16:05:02Z</time>
      </trkpt>
      <trkpt lat="45.59154" lon="4.6957">
        <ele>327</ele>
        <time>2017-07-09T16:04:36Z</time>
      </trkpt>
      <trkpt lat="45.59069" lon="4.69534">
        <ele>329</ele>
        <time>2017-07-09T16:04:25Z</time>
      </trkpt>
      <trkpt lat="45.58997" lon="4.69516">
        <ele>334</ele>
        <time>2017-07-09T16:04:14Z</time>
      </trkpt>
      <trkpt lat="45.58992" lon="4.69516">
        <ele>334</ele>
        <time>2017-07-09T16:04:13Z</time>
      </trkpt>
      <trkpt lat="45.58885" lon="4.69535">
        <ele>333</ele>
        <time>2017-07-09T16:03:51Z</time>
      </trkpt>
      <trkpt lat="45.58844" lon="4.69533">
        <ele>329</ele>
        <time>2017-07-09T16:03:42Z</time>
      </trkpt>
      <trkpt lat="45.58811" lon="4.69528">
        <ele>328</ele>
        <time>2017-07-09T16:03:35Z</time>
      </trkpt>
      <trkpt lat="45.58804" lon="4.69528">
        <ele>328</ele>
        <time>2017-07-09T16:03:33Z</time>
      </trkpt>
      <trkpt lat="45.58798" lon="4.6952">
        <ele>328</ele>
        <time>2017-07-09T16:03:31Z</time>
      </trkpt>
      <trkpt lat="45.58795" lon="4.6951">
        <ele>327</ele>
        <time>2017-07-09T16:03:29Z</time>
      </trkpt>
      <trkpt lat="45.58741" lon="4.69346">
        <ele>329</ele>
        <time>2017-07-09T16:03:07Z</time>
      </trkpt>
      <trkpt lat="45.5873" lon="4.6932">
        <ele>327</ele>
        <time>2017-07-09T16:03:03Z</time>
      </trkpt>
      <trkpt lat="45.58719" lon="4.69292">
        <ele>327</ele>
        <time>2017-07-09T16:02:59Z</time>
      </trkpt>
      <trkpt lat="45.58622" lon="4.69131">
        <ele>332</ele>
        <time>2017-07-09T16:02:32Z</time>
      </trkpt>
      <trkpt lat="45.58617" lon="4.69126">
        <ele>333</ele>
        <time>2017-07-09T16:02:31Z</time>
      </trkpt>
      <trkpt lat="45.58612" lon="4.69124">
        <ele>333</ele>
        <time>2017-07-09T16:02:30Z</time>
      </trkpt>
      <trkpt lat="45.58596" lon="4.69127">
        <ele>334</ele>
        <time>2017-07-09T16:02:27Z</time>
      </trkpt>
      <trkpt lat="45.58577" lon="4.69131">
        <ele>334</ele>
        <time>2017-07-09T16:02:23Z</time>
      </trkpt>
      <trkpt lat="45.58572" lon="4.69132">
        <ele>334</ele>
        <time>2017-07-09T16:02:22Z</time>
      </trkpt>
      <trkpt lat="45.58479" lon="4.69082">
        <ele>324</ele>
        <time>2017-07-09T16:02:00Z</time>
      </trkpt>
      <trkpt lat="45.58469" lon="4.69082">
        <ele>323</ele>
        <time>2017-07-09T16:01:58Z</time>
      </trkpt>
      <trkpt lat="45.58465" lon="4.69086">
        <ele>323</ele>
        <time>2017-07-09T16:01:57Z</time>
      </trkpt>
      <trkpt lat="45.58461" lon="4.69095">
        <ele>324</ele>
        <time>2017-07-09T16:01:55Z</time>
      </trkpt>
      <trkpt lat="45.58455" lon="4.691">
        <ele>324</ele>
        <time>2017-07-09T16:01:53Z</time>
      </trkpt>
      <trkpt lat="45.58405" lon="4.69095">
        <ele>321</ele>
        <time>2017-07-09T16:01:43Z</time>
      </trkpt>
      <trkpt lat="45.58392" lon="4.69093">
        <ele>321</ele>
        <time>2017-07-09T16:01:41Z</time>
      </trkpt>
      <trkpt lat="45.58373" lon="4.69091">
        <ele>320</ele>
        <time>2017-07-09T16:01:37Z</time>
      </trkpt>
      <trkpt lat="45.58351" lon="4.69091">
        <ele>321</ele>
        <time>2017-07-09T16:01:30Z</time>
      </trkpt>
      <trkpt lat="45.58345" lon="4.69089">
        <ele>320</ele>
        <time>2017-07-09T16:01:14Z</time>
      </trkpt>
      <trkpt lat="45.58345" lon="4.69089">
        <ele>320</ele>
        <time>2017-07-09T16:01:14Z</time>
      </trkpt>
    </trkseg>
  </trk>
</gpx>